<?xml version="1.0" encoding="UTF-8" standalone="no" ?>
<gpx xmlns="http://www.topografix.com/GPX/1/1" xmlns:xsi="http://www.w3.org/2001/XMLSchema-instance" xsi:schemaLocation="http://www.topografix.com/GPX/1/1 http://www.topografix.com/GPX/1/1/gpx.xsd" version="1.1" creator="VisuGPX - https://www.visugpx.com">
  <metadata>
    <name>CLM Michel Etiemble</name>
  </metadata>
  <trk>
    <name><![CDATA[CLM Michel Etiemble]]></name>
    <extensions>
      <line xmlns="http://www.topografix.com/GPX/gpx_style/0/2">
        <color>0000FF</color>
        <width>4</width>
      </line>
    </extensions>
    <trkseg>
      <trkpt lat="48.60386" lon="-3.01525">
        <ele>97</ele>
        <time>2023-01-31T15:47:50.000Z</time>
      </trkpt>
      <trkpt lat="48.60391" lon="-3.0153">
        <ele>97</ele>
        <time>2023-01-31T15:47:50.538Z</time>
      </trkpt>
      <trkpt lat="48.60397" lon="-3.01536">
        <ele>97</ele>
        <time>2023-01-31T15:47:51.075Z</time>
      </trkpt>
      <trkpt lat="48.60402" lon="-3.01541">
        <ele>97</ele>
        <time>2023-01-31T15:47:51.613Z</time>
      </trkpt>
      <trkpt lat="48.60407" lon="-3.01546">
        <ele>97</ele>
        <time>2023-01-31T15:47:52.151Z</time>
      </trkpt>
      <trkpt lat="48.60414" lon="-3.01553">
        <ele>97</ele>
        <time>2023-01-31T15:47:52.853Z</time>
      </trkpt>
      <trkpt lat="48.60421" lon="-3.01559">
        <ele>97</ele>
        <time>2023-01-31T15:47:53.554Z</time>
      </trkpt>
      <trkpt lat="48.60428" lon="-3.01567">
        <ele>97</ele>
        <time>2023-01-31T15:47:54.287Z</time>
      </trkpt>
      <trkpt lat="48.60435" lon="-3.01574">
        <ele>97</ele>
        <time>2023-01-31T15:47:55.020Z</time>
      </trkpt>
      <trkpt lat="48.60442" lon="-3.01583">
        <ele>97</ele>
        <time>2023-01-31T15:47:55.754Z</time>
      </trkpt>
      <trkpt lat="48.60448" lon="-3.01591">
        <ele>97</ele>
        <time>2023-01-31T15:47:56.488Z</time>
      </trkpt>
      <trkpt lat="48.60452" lon="-3.01597">
        <ele>97</ele>
        <time>2023-01-31T15:47:56.919Z</time>
      </trkpt>
      <trkpt lat="48.60455" lon="-3.01602">
        <ele>97</ele>
        <time>2023-01-31T15:47:57.351Z</time>
      </trkpt>
      <trkpt lat="48.60459" lon="-3.01608">
        <ele>97</ele>
        <time>2023-01-31T15:47:57.782Z</time>
      </trkpt>
      <trkpt lat="48.60462" lon="-3.01613">
        <ele>96.9</ele>
        <time>2023-01-31T15:47:58.143Z</time>
      </trkpt>
      <trkpt lat="48.60468" lon="-3.01621">
        <ele>96.6</ele>
        <time>2023-01-31T15:47:58.627Z</time>
      </trkpt>
      <trkpt lat="48.60474" lon="-3.01629">
        <ele>96.3</ele>
        <time>2023-01-31T15:47:59.111Z</time>
      </trkpt>
      <trkpt lat="48.60479" lon="-3.01637">
        <ele>96.1</ele>
        <time>2023-01-31T15:47:59.644Z</time>
      </trkpt>
      <trkpt lat="48.60485" lon="-3.01645">
        <ele>95.9</ele>
        <time>2023-01-31T15:48:00.178Z</time>
      </trkpt>
      <trkpt lat="48.60489" lon="-3.01651">
        <ele>95.7</ele>
        <time>2023-01-31T15:48:00.525Z</time>
      </trkpt>
      <trkpt lat="48.60493" lon="-3.01657">
        <ele>95.5</ele>
        <time>2023-01-31T15:48:00.872Z</time>
      </trkpt>
      <trkpt lat="48.60497" lon="-3.01662">
        <ele>95.3</ele>
        <time>2023-01-31T15:48:01.219Z</time>
      </trkpt>
      <trkpt lat="48.60501" lon="-3.01668">
        <ele>94.9</ele>
        <time>2023-01-31T15:48:01.502Z</time>
      </trkpt>
      <trkpt lat="48.60506" lon="-3.01675">
        <ele>94.3</ele>
        <time>2023-01-31T15:48:01.821Z</time>
      </trkpt>
      <trkpt lat="48.6051" lon="-3.01681">
        <ele>94</ele>
        <time>2023-01-31T15:48:02.180Z</time>
      </trkpt>
      <trkpt lat="48.60516" lon="-3.01689">
        <ele>93.7</ele>
        <time>2023-01-31T15:48:02.679Z</time>
      </trkpt>
      <trkpt lat="48.60514" lon="-3.01699">
        <ele>93.3</ele>
        <time>2023-01-31T15:48:03.064Z</time>
      </trkpt>
      <trkpt lat="48.60511" lon="-3.01709">
        <ele>92.9</ele>
        <time>2023-01-31T15:48:03.450Z</time>
      </trkpt>
      <trkpt lat="48.60506" lon="-3.01717">
        <ele>92.4</ele>
        <time>2023-01-31T15:48:03.844Z</time>
      </trkpt>
      <trkpt lat="48.605" lon="-3.01725">
        <ele>91.9</ele>
        <time>2023-01-31T15:48:04.238Z</time>
      </trkpt>
      <trkpt lat="48.60495" lon="-3.01733">
        <ele>91.6</ele>
        <time>2023-01-31T15:48:04.708Z</time>
      </trkpt>
      <trkpt lat="48.60489" lon="-3.01741">
        <ele>91.3</ele>
        <time>2023-01-31T15:48:05.177Z</time>
      </trkpt>
      <trkpt lat="48.60485" lon="-3.01748">
        <ele>91.1</ele>
        <time>2023-01-31T15:48:05.562Z</time>
      </trkpt>
      <trkpt lat="48.60481" lon="-3.01755">
        <ele>90.8</ele>
        <time>2023-01-31T15:48:05.904Z</time>
      </trkpt>
      <trkpt lat="48.60477" lon="-3.01761">
        <ele>90.6</ele>
        <time>2023-01-31T15:48:06.289Z</time>
      </trkpt>
      <trkpt lat="48.60473" lon="-3.01768">
        <ele>90.4</ele>
        <time>2023-01-31T15:48:06.674Z</time>
      </trkpt>
      <trkpt lat="48.60469" lon="-3.01773">
        <ele>90.3</ele>
        <time>2023-01-31T15:48:07.014Z</time>
      </trkpt>
      <trkpt lat="48.60466" lon="-3.01777">
        <ele>90.3</ele>
        <time>2023-01-31T15:48:07.423Z</time>
      </trkpt>
      <trkpt lat="48.60462" lon="-3.01782">
        <ele>90.4</ele>
        <time>2023-01-31T15:48:07.929Z</time>
      </trkpt>
      <trkpt lat="48.60458" lon="-3.01786">
        <ele>90.7</ele>
        <time>2023-01-31T15:48:08.770Z</time>
      </trkpt>
      <trkpt lat="48.60452" lon="-3.01791">
        <ele>91.1</ele>
        <time>2023-01-31T15:48:09.909Z</time>
      </trkpt>
      <trkpt lat="48.60453" lon="-3.01797">
        <ele>91.2</ele>
        <time>2023-01-31T15:48:10.358Z</time>
      </trkpt>
      <trkpt lat="48.60457" lon="-3.01805">
        <ele>91.1</ele>
        <time>2023-01-31T15:48:10.831Z</time>
      </trkpt>
      <trkpt lat="48.60461" lon="-3.01812">
        <ele>91</ele>
        <time>2023-01-31T15:48:11.303Z</time>
      </trkpt>
      <trkpt lat="48.60469" lon="-3.01818">
        <ele>90.7</ele>
        <time>2023-01-31T15:48:11.876Z</time>
      </trkpt>
      <trkpt lat="48.60477" lon="-3.0182">
        <ele>90.3</ele>
        <time>2023-01-31T15:48:12.340Z</time>
      </trkpt>
      <trkpt lat="48.60482" lon="-3.0182">
        <ele>90.2</ele>
        <time>2023-01-31T15:48:12.698Z</time>
      </trkpt>
      <trkpt lat="48.60487" lon="-3.0182">
        <ele>90</ele>
        <time>2023-01-31T15:48:13.004Z</time>
      </trkpt>
      <trkpt lat="48.60492" lon="-3.0182">
        <ele>89.8</ele>
        <time>2023-01-31T15:48:13.310Z</time>
      </trkpt>
      <trkpt lat="48.60497" lon="-3.0182">
        <ele>89.6</ele>
        <time>2023-01-31T15:48:13.616Z</time>
      </trkpt>
      <trkpt lat="48.60505" lon="-3.0182">
        <ele>89.3</ele>
        <time>2023-01-31T15:48:14.114Z</time>
      </trkpt>
      <trkpt lat="48.60513" lon="-3.0182">
        <ele>88.8</ele>
        <time>2023-01-31T15:48:14.535Z</time>
      </trkpt>
      <trkpt lat="48.60518" lon="-3.0182">
        <ele>88.6</ele>
        <time>2023-01-31T15:48:14.841Z</time>
      </trkpt>
      <trkpt lat="48.60523" lon="-3.0182">
        <ele>88.3</ele>
        <time>2023-01-31T15:48:15.108Z</time>
      </trkpt>
      <trkpt lat="48.60531" lon="-3.01823">
        <ele>88.1</ele>
        <time>2023-01-31T15:48:15.630Z</time>
      </trkpt>
      <trkpt lat="48.60538" lon="-3.01825">
        <ele>87.9</ele>
        <time>2023-01-31T15:48:16.153Z</time>
      </trkpt>
      <trkpt lat="48.60546" lon="-3.01828">
        <ele>87.6</ele>
        <time>2023-01-31T15:48:16.645Z</time>
      </trkpt>
      <trkpt lat="48.60554" lon="-3.0183">
        <ele>87.1</ele>
        <time>2023-01-31T15:48:17.061Z</time>
      </trkpt>
      <trkpt lat="48.60561" lon="-3.01833">
        <ele>86.6</ele>
        <time>2023-01-31T15:48:17.476Z</time>
      </trkpt>
      <trkpt lat="48.60569" lon="-3.01835">
        <ele>86.1</ele>
        <time>2023-01-31T15:48:17.891Z</time>
      </trkpt>
      <trkpt lat="48.60578" lon="-3.01838">
        <ele>85.5</ele>
        <time>2023-01-31T15:48:18.348Z</time>
      </trkpt>
      <trkpt lat="48.60587" lon="-3.0184">
        <ele>85.2</ele>
        <time>2023-01-31T15:48:18.918Z</time>
      </trkpt>
      <trkpt lat="48.60595" lon="-3.01843">
        <ele>85</ele>
        <time>2023-01-31T15:48:19.542Z</time>
      </trkpt>
      <trkpt lat="48.60604" lon="-3.01845">
        <ele>84.8</ele>
        <time>2023-01-31T15:48:20.166Z</time>
      </trkpt>
      <trkpt lat="48.60611" lon="-3.01847">
        <ele>84.5</ele>
        <time>2023-01-31T15:48:20.593Z</time>
      </trkpt>
      <trkpt lat="48.60618" lon="-3.01849">
        <ele>84.1</ele>
        <time>2023-01-31T15:48:20.981Z</time>
      </trkpt>
      <trkpt lat="48.60625" lon="-3.0185">
        <ele>83.6</ele>
        <time>2023-01-31T15:48:21.345Z</time>
      </trkpt>
      <trkpt lat="48.60632" lon="-3.01852">
        <ele>83.1</ele>
        <time>2023-01-31T15:48:21.708Z</time>
      </trkpt>
      <trkpt lat="48.60639" lon="-3.01854">
        <ele>82.6</ele>
        <time>2023-01-31T15:48:22.045Z</time>
      </trkpt>
      <trkpt lat="48.60645" lon="-3.01855">
        <ele>82</ele>
        <time>2023-01-31T15:48:22.382Z</time>
      </trkpt>
      <trkpt lat="48.60653" lon="-3.01856">
        <ele>81.5</ele>
        <time>2023-01-31T15:48:22.767Z</time>
      </trkpt>
      <trkpt lat="48.6066" lon="-3.01856">
        <ele>81</ele>
        <time>2023-01-31T15:48:23.153Z</time>
      </trkpt>
      <trkpt lat="48.60666" lon="-3.01855">
        <ele>80.7</ele>
        <time>2023-01-31T15:48:23.496Z</time>
      </trkpt>
      <trkpt lat="48.60672" lon="-3.01855">
        <ele>80.4</ele>
        <time>2023-01-31T15:48:23.840Z</time>
      </trkpt>
      <trkpt lat="48.60678" lon="-3.01854">
        <ele>80.2</ele>
        <time>2023-01-31T15:48:24.227Z</time>
      </trkpt>
      <trkpt lat="48.60684" lon="-3.01853">
        <ele>79.9</ele>
        <time>2023-01-31T15:48:24.571Z</time>
      </trkpt>
      <trkpt lat="48.6069" lon="-3.01852">
        <ele>79.6</ele>
        <time>2023-01-31T15:48:24.915Z</time>
      </trkpt>
      <trkpt lat="48.60696" lon="-3.01852">
        <ele>79.3</ele>
        <time>2023-01-31T15:48:25.259Z</time>
      </trkpt>
      <trkpt lat="48.60702" lon="-3.01851">
        <ele>79.1</ele>
        <time>2023-01-31T15:48:25.646Z</time>
      </trkpt>
      <trkpt lat="48.60708" lon="-3.0185">
        <ele>78.9</ele>
        <time>2023-01-31T15:48:26.033Z</time>
      </trkpt>
      <trkpt lat="48.60711" lon="-3.01849">
        <ele>78.8</ele>
        <time>2023-01-31T15:48:26.232Z</time>
      </trkpt>
      <trkpt lat="48.60712" lon="-3.01844">
        <ele>79</ele>
        <time>2023-01-31T15:48:26.802Z</time>
      </trkpt>
      <trkpt lat="48.60704" lon="-3.01839">
        <ele>79.5</ele>
        <time>2023-01-31T15:48:28.234Z</time>
      </trkpt>
      <trkpt lat="48.60696" lon="-3.01833">
        <ele>80</ele>
        <time>2023-01-31T15:48:29.666Z</time>
      </trkpt>
      <trkpt lat="48.60691" lon="-3.01829">
        <ele>80.8</ele>
        <time>2023-01-31T15:48:31.873Z</time>
      </trkpt>
      <trkpt lat="48.60685" lon="-3.01826">
        <ele>81.8</ele>
        <time>2023-01-31T15:48:34.082Z</time>
      </trkpt>
      <trkpt lat="48.6068" lon="-3.01822">
        <ele>82.6</ele>
        <time>2023-01-31T15:48:36.290Z</time>
      </trkpt>
      <trkpt lat="48.60674" lon="-3.01818">
        <ele>83.5</ele>
        <time>2023-01-31T15:48:38.498Z</time>
      </trkpt>
      <trkpt lat="48.60667" lon="-3.01813">
        <ele>84.4</ele>
        <time>2023-01-31T15:48:41.129Z</time>
      </trkpt>
      <trkpt lat="48.60662" lon="-3.01809">
        <ele>84.9</ele>
        <time>2023-01-31T15:48:42.541Z</time>
      </trkpt>
      <trkpt lat="48.60657" lon="-3.01806">
        <ele>85.4</ele>
        <time>2023-01-31T15:48:43.953Z</time>
      </trkpt>
      <trkpt lat="48.60652" lon="-3.01802">
        <ele>85.7</ele>
        <time>2023-01-31T15:48:44.826Z</time>
      </trkpt>
      <trkpt lat="48.60647" lon="-3.01798">
        <ele>86.2</ele>
        <time>2023-01-31T15:48:46.238Z</time>
      </trkpt>
      <trkpt lat="48.60639" lon="-3.01792">
        <ele>87</ele>
        <time>2023-01-31T15:48:48.497Z</time>
      </trkpt>
      <trkpt lat="48.60631" lon="-3.01786">
        <ele>88</ele>
        <time>2023-01-31T15:48:51.423Z</time>
      </trkpt>
      <trkpt lat="48.60626" lon="-3.01782">
        <ele>88.6</ele>
        <time>2023-01-31T15:48:53.171Z</time>
      </trkpt>
      <trkpt lat="48.60622" lon="-3.01779">
        <ele>89.1</ele>
        <time>2023-01-31T15:48:54.629Z</time>
      </trkpt>
      <trkpt lat="48.60618" lon="-3.01776">
        <ele>89.6</ele>
        <time>2023-01-31T15:48:56.086Z</time>
      </trkpt>
      <trkpt lat="48.60613" lon="-3.01773">
        <ele>90</ele>
        <time>2023-01-31T15:48:57.207Z</time>
      </trkpt>
      <trkpt lat="48.60609" lon="-3.0177">
        <ele>90.3</ele>
        <time>2023-01-31T15:48:58.046Z</time>
      </trkpt>
      <trkpt lat="48.60605" lon="-3.01767">
        <ele>90.5</ele>
        <time>2023-01-31T15:48:58.679Z</time>
      </trkpt>
      <trkpt lat="48.60601" lon="-3.01765">
        <ele>90.7</ele>
        <time>2023-01-31T15:48:59.312Z</time>
      </trkpt>
      <trkpt lat="48.60596" lon="-3.01762">
        <ele>90.9</ele>
        <time>2023-01-31T15:48:59.945Z</time>
      </trkpt>
      <trkpt lat="48.60592" lon="-3.01759">
        <ele>91.1</ele>
        <time>2023-01-31T15:49:00.579Z</time>
      </trkpt>
      <trkpt lat="48.60584" lon="-3.01756">
        <ele>91.5</ele>
        <time>2023-01-31T15:49:01.784Z</time>
      </trkpt>
      <trkpt lat="48.60579" lon="-3.01754">
        <ele>91.7</ele>
        <time>2023-01-31T15:49:02.491Z</time>
      </trkpt>
      <trkpt lat="48.60573" lon="-3.01752">
        <ele>91.9</ele>
        <time>2023-01-31T15:49:03.199Z</time>
      </trkpt>
      <trkpt lat="48.60568" lon="-3.01749">
        <ele>92.1</ele>
        <time>2023-01-31T15:49:03.906Z</time>
      </trkpt>
      <trkpt lat="48.60562" lon="-3.01747">
        <ele>92.2</ele>
        <time>2023-01-31T15:49:04.487Z</time>
      </trkpt>
      <trkpt lat="48.60558" lon="-3.01743">
        <ele>92.5</ele>
        <time>2023-01-31T15:49:05.329Z</time>
      </trkpt>
      <trkpt lat="48.60551" lon="-3.01736">
        <ele>92.9</ele>
        <time>2023-01-31T15:49:06.543Z</time>
      </trkpt>
      <trkpt lat="48.60547" lon="-3.01729">
        <ele>93.3</ele>
        <time>2023-01-31T15:49:07.668Z</time>
      </trkpt>
      <trkpt lat="48.60542" lon="-3.01722">
        <ele>93.5</ele>
        <time>2023-01-31T15:49:08.431Z</time>
      </trkpt>
      <trkpt lat="48.60537" lon="-3.01716">
        <ele>93.5</ele>
        <time>2023-01-31T15:49:08.994Z</time>
      </trkpt>
      <trkpt lat="48.60532" lon="-3.01709">
        <ele>93.6</ele>
        <time>2023-01-31T15:49:09.650Z</time>
      </trkpt>
      <trkpt lat="48.60527" lon="-3.01703">
        <ele>93.7</ele>
        <time>2023-01-31T15:49:10.305Z</time>
      </trkpt>
      <trkpt lat="48.60522" lon="-3.01696">
        <ele>93.7</ele>
        <time>2023-01-31T15:49:10.869Z</time>
      </trkpt>
      <trkpt lat="48.6052" lon="-3.01694">
        <ele>93.7</ele>
        <time>2023-01-31T15:49:11.073Z</time>
      </trkpt>
      <trkpt lat="48.60522" lon="-3.01685">
        <ele>93.9</ele>
        <time>2023-01-31T15:49:11.824Z</time>
      </trkpt>
      <trkpt lat="48.60526" lon="-3.01679">
        <ele>94</ele>
        <time>2023-01-31T15:49:12.424Z</time>
      </trkpt>
      <trkpt lat="48.60531" lon="-3.01673">
        <ele>94</ele>
        <time>2023-01-31T15:49:12.930Z</time>
      </trkpt>
      <trkpt lat="48.60535" lon="-3.01666">
        <ele>94</ele>
        <time>2023-01-31T15:49:13.436Z</time>
      </trkpt>
      <trkpt lat="48.60539" lon="-3.0166">
        <ele>94</ele>
        <time>2023-01-31T15:49:13.943Z</time>
      </trkpt>
      <trkpt lat="48.60543" lon="-3.01654">
        <ele>94</ele>
        <time>2023-01-31T15:49:14.442Z</time>
      </trkpt>
      <trkpt lat="48.60547" lon="-3.01648">
        <ele>93.7</ele>
        <time>2023-01-31T15:49:14.772Z</time>
      </trkpt>
      <trkpt lat="48.60551" lon="-3.01641">
        <ele>93.4</ele>
        <time>2023-01-31T15:49:15.102Z</time>
      </trkpt>
      <trkpt lat="48.60556" lon="-3.01635">
        <ele>93</ele>
        <time>2023-01-31T15:49:15.401Z</time>
      </trkpt>
      <trkpt lat="48.6056" lon="-3.01629">
        <ele>92.9</ele>
        <time>2023-01-31T15:49:15.829Z</time>
      </trkpt>
      <trkpt lat="48.60564" lon="-3.01623">
        <ele>92.8</ele>
        <time>2023-01-31T15:49:16.256Z</time>
      </trkpt>
      <trkpt lat="48.60568" lon="-3.01616">
        <ele>92.6</ele>
        <time>2023-01-31T15:49:16.629Z</time>
      </trkpt>
      <trkpt lat="48.60572" lon="-3.0161">
        <ele>92.4</ele>
        <time>2023-01-31T15:49:17.002Z</time>
      </trkpt>
      <trkpt lat="48.60578" lon="-3.01601">
        <ele>92</ele>
        <time>2023-01-31T15:49:17.493Z</time>
      </trkpt>
      <trkpt lat="48.60584" lon="-3.01592">
        <ele>91.3</ele>
        <time>2023-01-31T15:49:17.926Z</time>
      </trkpt>
      <trkpt lat="48.60589" lon="-3.01583">
        <ele>91</ele>
        <time>2023-01-31T15:49:18.419Z</time>
      </trkpt>
      <trkpt lat="48.60595" lon="-3.01574">
        <ele>91.1</ele>
        <time>2023-01-31T15:49:19.187Z</time>
      </trkpt>
      <trkpt lat="48.606" lon="-3.01565">
        <ele>90.9</ele>
        <time>2023-01-31T15:49:19.731Z</time>
      </trkpt>
      <trkpt lat="48.60605" lon="-3.01556">
        <ele>90.4</ele>
        <time>2023-01-31T15:49:20.147Z</time>
      </trkpt>
      <trkpt lat="48.60609" lon="-3.01549">
        <ele>90.4</ele>
        <time>2023-01-31T15:49:20.680Z</time>
      </trkpt>
      <trkpt lat="48.60613" lon="-3.01542">
        <ele>90.5</ele>
        <time>2023-01-31T15:49:21.307Z</time>
      </trkpt>
      <trkpt lat="48.60617" lon="-3.01534">
        <ele>90.6</ele>
        <time>2023-01-31T15:49:21.933Z</time>
      </trkpt>
      <trkpt lat="48.60621" lon="-3.01527">
        <ele>90.7</ele>
        <time>2023-01-31T15:49:22.559Z</time>
      </trkpt>
      <trkpt lat="48.60625" lon="-3.0152">
        <ele>90.6</ele>
        <time>2023-01-31T15:49:23.020Z</time>
      </trkpt>
      <trkpt lat="48.60629" lon="-3.01513">
        <ele>90.6</ele>
        <time>2023-01-31T15:49:23.554Z</time>
      </trkpt>
      <trkpt lat="48.60633" lon="-3.01505">
        <ele>90.4</ele>
        <time>2023-01-31T15:49:23.959Z</time>
      </trkpt>
      <trkpt lat="48.60637" lon="-3.01498">
        <ele>90.2</ele>
        <time>2023-01-31T15:49:24.365Z</time>
      </trkpt>
      <trkpt lat="48.6064" lon="-3.01492">
        <ele>90.3</ele>
        <time>2023-01-31T15:49:24.870Z</time>
      </trkpt>
      <trkpt lat="48.60643" lon="-3.01487">
        <ele>90.5</ele>
        <time>2023-01-31T15:49:25.513Z</time>
      </trkpt>
      <trkpt lat="48.60646" lon="-3.01481">
        <ele>90.9</ele>
        <time>2023-01-31T15:49:26.631Z</time>
      </trkpt>
      <trkpt lat="48.60649" lon="-3.01476">
        <ele>91.2</ele>
        <time>2023-01-31T15:49:27.472Z</time>
      </trkpt>
      <trkpt lat="48.60652" lon="-3.0147">
        <ele>91.6</ele>
        <time>2023-01-31T15:49:28.590Z</time>
      </trkpt>
      <trkpt lat="48.60655" lon="-3.01464">
        <ele>91.8</ele>
        <time>2023-01-31T15:49:29.234Z</time>
      </trkpt>
      <trkpt lat="48.60658" lon="-3.01459">
        <ele>92</ele>
        <time>2023-01-31T15:49:29.877Z</time>
      </trkpt>
      <trkpt lat="48.60661" lon="-3.01453">
        <ele>92.1</ele>
        <time>2023-01-31T15:49:30.382Z</time>
      </trkpt>
      <trkpt lat="48.60666" lon="-3.01443">
        <ele>92.1</ele>
        <time>2023-01-31T15:49:31.090Z</time>
      </trkpt>
      <trkpt lat="48.6067" lon="-3.01436">
        <ele>92.3</ele>
        <time>2023-01-31T15:49:31.828Z</time>
      </trkpt>
      <trkpt lat="48.60674" lon="-3.01429">
        <ele>92.4</ele>
        <time>2023-01-31T15:49:32.444Z</time>
      </trkpt>
      <trkpt lat="48.6068" lon="-3.01422">
        <ele>92.4</ele>
        <time>2023-01-31T15:49:33.058Z</time>
      </trkpt>
      <trkpt lat="48.60685" lon="-3.01415">
        <ele>92.4</ele>
        <time>2023-01-31T15:49:33.672Z</time>
      </trkpt>
      <trkpt lat="48.60691" lon="-3.01408">
        <ele>92.5</ele>
        <time>2023-01-31T15:49:34.377Z</time>
      </trkpt>
      <trkpt lat="48.60696" lon="-3.01401">
        <ele>92.6</ele>
        <time>2023-01-31T15:49:35.083Z</time>
      </trkpt>
      <trkpt lat="48.60698" lon="-3.01394">
        <ele>92.8</ele>
        <time>2023-01-31T15:49:35.744Z</time>
      </trkpt>
      <trkpt lat="48.60702" lon="-3.01386">
        <ele>92.9</ele>
        <time>2023-01-31T15:49:36.402Z</time>
      </trkpt>
      <trkpt lat="48.60706" lon="-3.01377">
        <ele>92.6</ele>
        <time>2023-01-31T15:49:36.835Z</time>
      </trkpt>
      <trkpt lat="48.6071" lon="-3.01368">
        <ele>92.2</ele>
        <time>2023-01-31T15:49:37.229Z</time>
      </trkpt>
      <trkpt lat="48.60713" lon="-3.01358">
        <ele>91.7</ele>
        <time>2023-01-31T15:49:37.607Z</time>
      </trkpt>
      <trkpt lat="48.60715" lon="-3.01347">
        <ele>91.5</ele>
        <time>2023-01-31T15:49:38.105Z</time>
      </trkpt>
      <trkpt lat="48.60717" lon="-3.0134">
        <ele>91.4</ele>
        <time>2023-01-31T15:49:38.455Z</time>
      </trkpt>
      <trkpt lat="48.60719" lon="-3.01333">
        <ele>91.3</ele>
        <time>2023-01-31T15:49:38.806Z</time>
      </trkpt>
      <trkpt lat="48.60721" lon="-3.01326">
        <ele>91.1</ele>
        <time>2023-01-31T15:49:39.105Z</time>
      </trkpt>
      <trkpt lat="48.60723" lon="-3.0132">
        <ele>91</ele>
        <time>2023-01-31T15:49:39.456Z</time>
      </trkpt>
      <trkpt lat="48.60724" lon="-3.01313">
        <ele>91.1</ele>
        <time>2023-01-31T15:49:39.972Z</time>
      </trkpt>
      <trkpt lat="48.60726" lon="-3.01306">
        <ele>91.1</ele>
        <time>2023-01-31T15:49:40.392Z</time>
      </trkpt>
      <trkpt lat="48.60728" lon="-3.01299">
        <ele>91.3</ele>
        <time>2023-01-31T15:49:41.045Z</time>
      </trkpt>
      <trkpt lat="48.6073" lon="-3.01292">
        <ele>91.5</ele>
        <time>2023-01-31T15:49:41.697Z</time>
      </trkpt>
      <trkpt lat="48.60732" lon="-3.01285">
        <ele>91.6</ele>
        <time>2023-01-31T15:49:42.235Z</time>
      </trkpt>
      <trkpt lat="48.60733" lon="-3.01277">
        <ele>91.6</ele>
        <time>2023-01-31T15:49:42.678Z</time>
      </trkpt>
      <trkpt lat="48.60735" lon="-3.0127">
        <ele>91.7</ele>
        <time>2023-01-31T15:49:43.216Z</time>
      </trkpt>
      <trkpt lat="48.60736" lon="-3.01262">
        <ele>91.8</ele>
        <time>2023-01-31T15:49:43.754Z</time>
      </trkpt>
      <trkpt lat="48.60739" lon="-3.0125">
        <ele>91.8</ele>
        <time>2023-01-31T15:49:44.465Z</time>
      </trkpt>
      <trkpt lat="48.60741" lon="-3.01238">
        <ele>91.8</ele>
        <time>2023-01-31T15:49:45.176Z</time>
      </trkpt>
      <trkpt lat="48.60743" lon="-3.01227">
        <ele>91.7</ele>
        <time>2023-01-31T15:49:45.753Z</time>
      </trkpt>
      <trkpt lat="48.60746" lon="-3.01216">
        <ele>91.5</ele>
        <time>2023-01-31T15:49:46.270Z</time>
      </trkpt>
      <trkpt lat="48.60748" lon="-3.01205">
        <ele>91.2</ele>
        <time>2023-01-31T15:49:46.738Z</time>
      </trkpt>
      <trkpt lat="48.6075" lon="-3.01194">
        <ele>91</ele>
        <time>2023-01-31T15:49:47.255Z</time>
      </trkpt>
      <trkpt lat="48.60752" lon="-3.01188">
        <ele>91.3</ele>
        <time>2023-01-31T15:49:48.095Z</time>
      </trkpt>
      <trkpt lat="48.60754" lon="-3.01181">
        <ele>91.5</ele>
        <time>2023-01-31T15:49:48.736Z</time>
      </trkpt>
      <trkpt lat="48.60756" lon="-3.01175">
        <ele>91.7</ele>
        <time>2023-01-31T15:49:49.377Z</time>
      </trkpt>
      <trkpt lat="48.60758" lon="-3.01168">
        <ele>92</ele>
        <time>2023-01-31T15:49:50.217Z</time>
      </trkpt>
      <trkpt lat="48.6076" lon="-3.01162">
        <ele>92.2</ele>
        <time>2023-01-31T15:49:50.858Z</time>
      </trkpt>
      <trkpt lat="48.60762" lon="-3.01155">
        <ele>92.5</ele>
        <time>2023-01-31T15:49:51.699Z</time>
      </trkpt>
      <trkpt lat="48.60764" lon="-3.01149">
        <ele>92.6</ele>
        <time>2023-01-31T15:49:52.201Z</time>
      </trkpt>
      <trkpt lat="48.60766" lon="-3.01142">
        <ele>92.8</ele>
        <time>2023-01-31T15:49:52.841Z</time>
      </trkpt>
      <trkpt lat="48.6077" lon="-3.0113">
        <ele>92.7</ele>
        <time>2023-01-31T15:49:53.517Z</time>
      </trkpt>
      <trkpt lat="48.60774" lon="-3.01118">
        <ele>92.4</ele>
        <time>2023-01-31T15:49:54.077Z</time>
      </trkpt>
      <trkpt lat="48.60777" lon="-3.01106">
        <ele>92.4</ele>
        <time>2023-01-31T15:49:54.827Z</time>
      </trkpt>
      <trkpt lat="48.60781" lon="-3.01094">
        <ele>93.2</ele>
        <time>2023-01-31T15:49:57.094Z</time>
      </trkpt>
      <trkpt lat="48.60784" lon="-3.01086">
        <ele>93.7</ele>
        <time>2023-01-31T15:49:58.486Z</time>
      </trkpt>
      <trkpt lat="48.60786" lon="-3.01077">
        <ele>93.9</ele>
        <time>2023-01-31T15:49:59.227Z</time>
      </trkpt>
      <trkpt lat="48.60789" lon="-3.01069">
        <ele>93.9</ele>
        <time>2023-01-31T15:49:59.752Z</time>
      </trkpt>
      <trkpt lat="48.60791" lon="-3.0106">
        <ele>94</ele>
        <time>2023-01-31T15:50:00.371Z</time>
      </trkpt>
      <trkpt lat="48.60792" lon="-3.01053">
        <ele>94.1</ele>
        <time>2023-01-31T15:50:00.899Z</time>
      </trkpt>
      <trkpt lat="48.60793" lon="-3.01045">
        <ele>94.3</ele>
        <time>2023-01-31T15:50:01.561Z</time>
      </trkpt>
      <trkpt lat="48.60794" lon="-3.01038">
        <ele>94.5</ele>
        <time>2023-01-31T15:50:02.223Z</time>
      </trkpt>
      <trkpt lat="48.60795" lon="-3.0103">
        <ele>94.7</ele>
        <time>2023-01-31T15:50:02.885Z</time>
      </trkpt>
      <trkpt lat="48.60796" lon="-3.01022">
        <ele>94.7</ele>
        <time>2023-01-31T15:50:03.373Z</time>
      </trkpt>
      <trkpt lat="48.60797" lon="-3.01013">
        <ele>94.6</ele>
        <time>2023-01-31T15:50:03.789Z</time>
      </trkpt>
      <trkpt lat="48.60798" lon="-3.01003">
        <ele>94.5</ele>
        <time>2023-01-31T15:50:04.288Z</time>
      </trkpt>
      <trkpt lat="48.60799" lon="-3.0099">
        <ele>94.8</ele>
        <time>2023-01-31T15:50:05.354Z</time>
      </trkpt>
      <trkpt lat="48.60799" lon="-3.00977">
        <ele>95.1</ele>
        <time>2023-01-31T15:50:06.419Z</time>
      </trkpt>
      <trkpt lat="48.608" lon="-3.00964">
        <ele>95.2</ele>
        <time>2023-01-31T15:50:07.244Z</time>
      </trkpt>
      <trkpt lat="48.608" lon="-3.00951">
        <ele>95.2</ele>
        <time>2023-01-31T15:50:07.980Z</time>
      </trkpt>
      <trkpt lat="48.60801" lon="-3.0094">
        <ele>95.2</ele>
        <time>2023-01-31T15:50:08.602Z</time>
      </trkpt>
      <trkpt lat="48.60801" lon="-3.00929">
        <ele>95.2</ele>
        <time>2023-01-31T15:50:09.225Z</time>
      </trkpt>
      <trkpt lat="48.60802" lon="-3.00921">
        <ele>95.1</ele>
        <time>2023-01-31T15:50:09.619Z</time>
      </trkpt>
      <trkpt lat="48.60804" lon="-3.00913">
        <ele>95.1</ele>
        <time>2023-01-31T15:50:10.083Z</time>
      </trkpt>
      <trkpt lat="48.60805" lon="-3.00905">
        <ele>95</ele>
        <time>2023-01-31T15:50:10.477Z</time>
      </trkpt>
      <trkpt lat="48.60806" lon="-3.00897">
        <ele>95</ele>
        <time>2023-01-31T15:50:10.942Z</time>
      </trkpt>
      <trkpt lat="48.60808" lon="-3.00887">
        <ele>95.1</ele>
        <time>2023-01-31T15:50:11.650Z</time>
      </trkpt>
      <trkpt lat="48.6081" lon="-3.00876">
        <ele>95.4</ele>
        <time>2023-01-31T15:50:12.619Z</time>
      </trkpt>
      <trkpt lat="48.60812" lon="-3.00866">
        <ele>95.6</ele>
        <time>2023-01-31T15:50:13.442Z</time>
      </trkpt>
      <trkpt lat="48.60814" lon="-3.00855">
        <ele>95.9</ele>
        <time>2023-01-31T15:50:14.410Z</time>
      </trkpt>
      <trkpt lat="48.60816" lon="-3.00846">
        <ele>96.2</ele>
        <time>2023-01-31T15:50:15.331Z</time>
      </trkpt>
      <trkpt lat="48.60817" lon="-3.00836">
        <ele>96.5</ele>
        <time>2023-01-31T15:50:16.251Z</time>
      </trkpt>
      <trkpt lat="48.60819" lon="-3.00827">
        <ele>96.5</ele>
        <time>2023-01-31T15:50:16.803Z</time>
      </trkpt>
      <trkpt lat="48.6082" lon="-3.00817">
        <ele>96.5</ele>
        <time>2023-01-31T15:50:17.354Z</time>
      </trkpt>
      <trkpt lat="48.60821" lon="-3.00809">
        <ele>96.5</ele>
        <time>2023-01-31T15:50:17.808Z</time>
      </trkpt>
      <trkpt lat="48.60821" lon="-3.00801">
        <ele>96.4</ele>
        <time>2023-01-31T15:50:18.192Z</time>
      </trkpt>
      <trkpt lat="48.60822" lon="-3.00793">
        <ele>96.2</ele>
        <time>2023-01-31T15:50:18.522Z</time>
      </trkpt>
      <trkpt lat="48.60822" lon="-3.00785">
        <ele>96</ele>
        <time>2023-01-31T15:50:18.853Z</time>
      </trkpt>
      <trkpt lat="48.60823" lon="-3.00772">
        <ele>95.7</ele>
        <time>2023-01-31T15:50:19.417Z</time>
      </trkpt>
      <trkpt lat="48.60824" lon="-3.00759">
        <ele>95.7</ele>
        <time>2023-01-31T15:50:20.170Z</time>
      </trkpt>
      <trkpt lat="48.60825" lon="-3.00745">
        <ele>95.5</ele>
        <time>2023-01-31T15:50:20.787Z</time>
      </trkpt>
      <trkpt lat="48.60826" lon="-3.00732">
        <ele>95.4</ele>
        <time>2023-01-31T15:50:21.466Z</time>
      </trkpt>
      <trkpt lat="48.60827" lon="-3.00724">
        <ele>95.3</ele>
        <time>2023-01-31T15:50:21.866Z</time>
      </trkpt>
      <trkpt lat="48.60828" lon="-3.00716">
        <ele>95.2</ele>
        <time>2023-01-31T15:50:22.265Z</time>
      </trkpt>
      <trkpt lat="48.60828" lon="-3.00707">
        <ele>95.2</ele>
        <time>2023-01-31T15:50:22.736Z</time>
      </trkpt>
      <trkpt lat="48.60829" lon="-3.00699">
        <ele>95.2</ele>
        <time>2023-01-31T15:50:23.206Z</time>
      </trkpt>
      <trkpt lat="48.6083" lon="-3.00689">
        <ele>95.1</ele>
        <time>2023-01-31T15:50:23.705Z</time>
      </trkpt>
      <trkpt lat="48.60831" lon="-3.00679">
        <ele>95.1</ele>
        <time>2023-01-31T15:50:24.276Z</time>
      </trkpt>
      <trkpt lat="48.60832" lon="-3.00669">
        <ele>95</ele>
        <time>2023-01-31T15:50:24.775Z</time>
      </trkpt>
      <trkpt lat="48.60833" lon="-3.00659">
        <ele>95</ele>
        <time>2023-01-31T15:50:25.347Z</time>
      </trkpt>
      <trkpt lat="48.60834" lon="-3.00646">
        <ele>95</ele>
        <time>2023-01-31T15:50:26.114Z</time>
      </trkpt>
      <trkpt lat="48.60835" lon="-3.00632">
        <ele>95.1</ele>
        <time>2023-01-31T15:50:26.970Z</time>
      </trkpt>
      <trkpt lat="48.60837" lon="-3.00625">
        <ele>95.1</ele>
        <time>2023-01-31T15:50:27.420Z</time>
      </trkpt>
      <trkpt lat="48.60839" lon="-3.00617">
        <ele>95.2</ele>
        <time>2023-01-31T15:50:27.964Z</time>
      </trkpt>
      <trkpt lat="48.6084" lon="-3.0061">
        <ele>95.2</ele>
        <time>2023-01-31T15:50:28.413Z</time>
      </trkpt>
      <trkpt lat="48.60842" lon="-3.00602">
        <ele>95.3</ele>
        <time>2023-01-31T15:50:28.958Z</time>
      </trkpt>
      <trkpt lat="48.60845" lon="-3.00592">
        <ele>95.4</ele>
        <time>2023-01-31T15:50:29.666Z</time>
      </trkpt>
      <trkpt lat="48.60847" lon="-3.00582">
        <ele>95.5</ele>
        <time>2023-01-31T15:50:30.374Z</time>
      </trkpt>
      <trkpt lat="48.6085" lon="-3.00571">
        <ele>95.3</ele>
        <time>2023-01-31T15:50:30.859Z</time>
      </trkpt>
      <trkpt lat="48.60852" lon="-3.00561">
        <ele>95.1</ele>
        <time>2023-01-31T15:50:31.345Z</time>
      </trkpt>
      <trkpt lat="48.60854" lon="-3.0055">
        <ele>94.8</ele>
        <time>2023-01-31T15:50:31.807Z</time>
      </trkpt>
      <trkpt lat="48.60859" lon="-3.0054">
        <ele>94.4</ele>
        <time>2023-01-31T15:50:32.253Z</time>
      </trkpt>
      <trkpt lat="48.60863" lon="-3.00531">
        <ele>94.1</ele>
        <time>2023-01-31T15:50:32.740Z</time>
      </trkpt>
      <trkpt lat="48.60868" lon="-3.00521">
        <ele>94</ele>
        <time>2023-01-31T15:50:33.338Z</time>
      </trkpt>
      <trkpt lat="48.60872" lon="-3.00511">
        <ele>94</ele>
        <time>2023-01-31T15:50:34.010Z</time>
      </trkpt>
      <trkpt lat="48.60877" lon="-3.005">
        <ele>94</ele>
        <time>2023-01-31T15:50:34.740Z</time>
      </trkpt>
      <trkpt lat="48.60882" lon="-3.0049">
        <ele>94</ele>
        <time>2023-01-31T15:50:35.471Z</time>
      </trkpt>
      <trkpt lat="48.60886" lon="-3.00479">
        <ele>94</ele>
        <time>2023-01-31T15:50:36.201Z</time>
      </trkpt>
      <trkpt lat="48.60891" lon="-3.00468">
        <ele>93.8</ele>
        <time>2023-01-31T15:50:36.795Z</time>
      </trkpt>
      <trkpt lat="48.60896" lon="-3.00457">
        <ele>93.3</ele>
        <time>2023-01-31T15:50:37.277Z</time>
      </trkpt>
      <trkpt lat="48.60901" lon="-3.00446">
        <ele>93</ele>
        <time>2023-01-31T15:50:37.841Z</time>
      </trkpt>
      <trkpt lat="48.60904" lon="-3.00439">
        <ele>93</ele>
        <time>2023-01-31T15:50:38.313Z</time>
      </trkpt>
      <trkpt lat="48.60907" lon="-3.00432">
        <ele>93</ele>
        <time>2023-01-31T15:50:38.784Z</time>
      </trkpt>
      <trkpt lat="48.6091" lon="-3.00425">
        <ele>93</ele>
        <time>2023-01-31T15:50:39.255Z</time>
      </trkpt>
      <trkpt lat="48.60914" lon="-3.00419">
        <ele>93</ele>
        <time>2023-01-31T15:50:39.726Z</time>
      </trkpt>
      <trkpt lat="48.60917" lon="-3.00412">
        <ele>93</ele>
        <time>2023-01-31T15:50:40.198Z</time>
      </trkpt>
      <trkpt lat="48.6092" lon="-3.00405">
        <ele>93</ele>
        <time>2023-01-31T15:50:40.669Z</time>
      </trkpt>
      <trkpt lat="48.60923" lon="-3.00398">
        <ele>93</ele>
        <time>2023-01-31T15:50:41.140Z</time>
      </trkpt>
      <trkpt lat="48.60926" lon="-3.00391">
        <ele>93</ele>
        <time>2023-01-31T15:50:41.611Z</time>
      </trkpt>
      <trkpt lat="48.60929" lon="-3.00385">
        <ele>93</ele>
        <time>2023-01-31T15:50:42.059Z</time>
      </trkpt>
      <trkpt lat="48.60932" lon="-3.00378">
        <ele>93</ele>
        <time>2023-01-31T15:50:42.507Z</time>
      </trkpt>
      <trkpt lat="48.60935" lon="-3.00372">
        <ele>93</ele>
        <time>2023-01-31T15:50:42.919Z</time>
      </trkpt>
      <trkpt lat="48.60938" lon="-3.00366">
        <ele>93</ele>
        <time>2023-01-31T15:50:43.332Z</time>
      </trkpt>
      <trkpt lat="48.6094" lon="-3.0036">
        <ele>93</ele>
        <time>2023-01-31T15:50:43.744Z</time>
      </trkpt>
      <trkpt lat="48.60943" lon="-3.00354">
        <ele>92.8</ele>
        <time>2023-01-31T15:50:44.036Z</time>
      </trkpt>
      <trkpt lat="48.60946" lon="-3.00348">
        <ele>92.6</ele>
        <time>2023-01-31T15:50:44.329Z</time>
      </trkpt>
      <trkpt lat="48.60949" lon="-3.00342">
        <ele>92.4</ele>
        <time>2023-01-31T15:50:44.621Z</time>
      </trkpt>
      <trkpt lat="48.60951" lon="-3.00336">
        <ele>92.3</ele>
        <time>2023-01-31T15:50:44.964Z</time>
      </trkpt>
      <trkpt lat="48.60954" lon="-3.0033">
        <ele>92.4</ele>
        <time>2023-01-31T15:50:45.473Z</time>
      </trkpt>
      <trkpt lat="48.60958" lon="-3.00322">
        <ele>92.7</ele>
        <time>2023-01-31T15:50:46.396Z</time>
      </trkpt>
      <trkpt lat="48.60962" lon="-3.00315">
        <ele>92.9</ele>
        <time>2023-01-31T15:50:47.163Z</time>
      </trkpt>
      <trkpt lat="48.60966" lon="-3.00307">
        <ele>93</ele>
        <time>2023-01-31T15:50:47.811Z</time>
      </trkpt>
      <trkpt lat="48.6097" lon="-3.00299">
        <ele>92.8</ele>
        <time>2023-01-31T15:50:48.237Z</time>
      </trkpt>
      <trkpt lat="48.60975" lon="-3.00288">
        <ele>92.3</ele>
        <time>2023-01-31T15:50:48.718Z</time>
      </trkpt>
      <trkpt lat="48.6098" lon="-3.00277">
        <ele>92</ele>
        <time>2023-01-31T15:50:49.283Z</time>
      </trkpt>
      <trkpt lat="48.60985" lon="-3.00266">
        <ele>92</ele>
        <time>2023-01-31T15:50:50.037Z</time>
      </trkpt>
      <trkpt lat="48.6099" lon="-3.00255">
        <ele>92</ele>
        <time>2023-01-31T15:50:50.791Z</time>
      </trkpt>
      <trkpt lat="48.60994" lon="-3.00248">
        <ele>92</ele>
        <time>2023-01-31T15:50:51.310Z</time>
      </trkpt>
      <trkpt lat="48.60997" lon="-3.0024">
        <ele>92</ele>
        <time>2023-01-31T15:50:51.828Z</time>
      </trkpt>
      <trkpt lat="48.61001" lon="-3.00233">
        <ele>92</ele>
        <time>2023-01-31T15:50:52.347Z</time>
      </trkpt>
      <trkpt lat="48.61004" lon="-3.00225">
        <ele>92</ele>
        <time>2023-01-31T15:50:52.865Z</time>
      </trkpt>
      <trkpt lat="48.61007" lon="-3.0022">
        <ele>92</ele>
        <time>2023-01-31T15:50:53.255Z</time>
      </trkpt>
      <trkpt lat="48.6101" lon="-3.00214">
        <ele>92</ele>
        <time>2023-01-31T15:50:53.644Z</time>
      </trkpt>
      <trkpt lat="48.61012" lon="-3.00209">
        <ele>92</ele>
        <time>2023-01-31T15:50:54.034Z</time>
      </trkpt>
      <trkpt lat="48.61015" lon="-3.00203">
        <ele>92</ele>
        <time>2023-01-31T15:50:54.423Z</time>
      </trkpt>
      <trkpt lat="48.61016" lon="-3.00198">
        <ele>92</ele>
        <time>2023-01-31T15:50:54.718Z</time>
      </trkpt>
      <trkpt lat="48.61018" lon="-3.00193">
        <ele>91.9</ele>
        <time>2023-01-31T15:50:54.981Z</time>
      </trkpt>
      <trkpt lat="48.61017" lon="-3.00189">
        <ele>91.7</ele>
        <time>2023-01-31T15:50:55.126Z</time>
      </trkpt>
      <trkpt lat="48.61014" lon="-3.00184">
        <ele>91.4</ele>
        <time>2023-01-31T15:50:55.358Z</time>
      </trkpt>
      <trkpt lat="48.61011" lon="-3.0018">
        <ele>91.3</ele>
        <time>2023-01-31T15:50:55.676Z</time>
      </trkpt>
      <trkpt lat="48.61007" lon="-3.00175">
        <ele>91.1</ele>
        <time>2023-01-31T15:50:55.944Z</time>
      </trkpt>
      <trkpt lat="48.61004" lon="-3.0017">
        <ele>91</ele>
        <time>2023-01-31T15:50:56.262Z</time>
      </trkpt>
      <trkpt lat="48.61001" lon="-3.00165">
        <ele>91</ele>
        <time>2023-01-31T15:50:56.648Z</time>
      </trkpt>
      <trkpt lat="48.60998" lon="-3.00161">
        <ele>91.4</ele>
        <time>2023-01-31T15:50:57.775Z</time>
      </trkpt>
      <trkpt lat="48.60994" lon="-3.00156">
        <ele>91.6</ele>
        <time>2023-01-31T15:50:58.402Z</time>
      </trkpt>
      <trkpt lat="48.60991" lon="-3.00151">
        <ele>91.8</ele>
        <time>2023-01-31T15:50:59.028Z</time>
      </trkpt>
      <trkpt lat="48.60985" lon="-3.00142">
        <ele>92</ele>
        <time>2023-01-31T15:50:59.949Z</time>
      </trkpt>
      <trkpt lat="48.60979" lon="-3.00133">
        <ele>92</ele>
        <time>2023-01-31T15:51:00.671Z</time>
      </trkpt>
      <trkpt lat="48.60976" lon="-3.00127">
        <ele>92</ele>
        <time>2023-01-31T15:51:01.112Z</time>
      </trkpt>
      <trkpt lat="48.60972" lon="-3.00122">
        <ele>92</ele>
        <time>2023-01-31T15:51:01.553Z</time>
      </trkpt>
      <trkpt lat="48.60969" lon="-3.00116">
        <ele>92</ele>
        <time>2023-01-31T15:51:01.995Z</time>
      </trkpt>
      <trkpt lat="48.60965" lon="-3.0011">
        <ele>92</ele>
        <time>2023-01-31T15:51:02.436Z</time>
      </trkpt>
      <trkpt lat="48.6096" lon="-3.00102">
        <ele>92</ele>
        <time>2023-01-31T15:51:03.079Z</time>
      </trkpt>
      <trkpt lat="48.60955" lon="-3.00093">
        <ele>92</ele>
        <time>2023-01-31T15:51:03.722Z</time>
      </trkpt>
      <trkpt lat="48.60949" lon="-3.00087">
        <ele>92</ele>
        <time>2023-01-31T15:51:04.352Z</time>
      </trkpt>
      <trkpt lat="48.60943" lon="-3.0008">
        <ele>92.2</ele>
        <time>2023-01-31T15:51:05.187Z</time>
      </trkpt>
      <trkpt lat="48.60939" lon="-3.00076">
        <ele>92.4</ele>
        <time>2023-01-31T15:51:05.832Z</time>
      </trkpt>
      <trkpt lat="48.60935" lon="-3.00074">
        <ele>92.5</ele>
        <time>2023-01-31T15:51:06.338Z</time>
      </trkpt>
      <trkpt lat="48.6093" lon="-3.00071">
        <ele>92.5</ele>
        <time>2023-01-31T15:51:06.748Z</time>
      </trkpt>
      <trkpt lat="48.60925" lon="-3.0007">
        <ele>92.5</ele>
        <time>2023-01-31T15:51:07.179Z</time>
      </trkpt>
      <trkpt lat="48.6092" lon="-3.00069">
        <ele>92.5</ele>
        <time>2023-01-31T15:51:07.609Z</time>
      </trkpt>
      <trkpt lat="48.60915" lon="-3.00069">
        <ele>92.5</ele>
        <time>2023-01-31T15:51:08.079Z</time>
      </trkpt>
      <trkpt lat="48.60909" lon="-3.00069">
        <ele>92.6</ele>
        <time>2023-01-31T15:51:08.644Z</time>
      </trkpt>
      <trkpt lat="48.60905" lon="-3.00069">
        <ele>92.7</ele>
        <time>2023-01-31T15:51:09.127Z</time>
      </trkpt>
      <trkpt lat="48.609" lon="-3.00068">
        <ele>92.8</ele>
        <time>2023-01-31T15:51:09.611Z</time>
      </trkpt>
      <trkpt lat="48.60892" lon="-3.00067">
        <ele>92.9</ele>
        <time>2023-01-31T15:51:10.389Z</time>
      </trkpt>
      <trkpt lat="48.60884" lon="-3.00065">
        <ele>92.8</ele>
        <time>2023-01-31T15:51:11.004Z</time>
      </trkpt>
      <trkpt lat="48.60876" lon="-3.00064">
        <ele>92.5</ele>
        <time>2023-01-31T15:51:11.505Z</time>
      </trkpt>
      <trkpt lat="48.6087" lon="-3.00063">
        <ele>92.3</ele>
        <time>2023-01-31T15:51:11.897Z</time>
      </trkpt>
      <trkpt lat="48.60864" lon="-3.00061">
        <ele>92.1</ele>
        <time>2023-01-31T15:51:12.289Z</time>
      </trkpt>
      <trkpt lat="48.60864" lon="-3.00055">
        <ele>92.1</ele>
        <time>2023-01-31T15:51:12.628Z</time>
      </trkpt>
      <trkpt lat="48.6086" lon="-3.00046">
        <ele>92.4</ele>
        <time>2023-01-31T15:51:13.593Z</time>
      </trkpt>
      <trkpt lat="48.60855" lon="-3.00037">
        <ele>93</ele>
        <time>2023-01-31T15:51:15.256Z</time>
      </trkpt>
      <trkpt lat="48.6085" lon="-3.00027">
        <ele>93.4</ele>
        <time>2023-01-31T15:51:16.449Z</time>
      </trkpt>
      <trkpt lat="48.60846" lon="-3.00022">
        <ele>93.5</ele>
        <time>2023-01-31T15:51:16.973Z</time>
      </trkpt>
      <trkpt lat="48.60843" lon="-3.00017">
        <ele>93.5</ele>
        <time>2023-01-31T15:51:17.400Z</time>
      </trkpt>
      <trkpt lat="48.60839" lon="-3.00012">
        <ele>93.5</ele>
        <time>2023-01-31T15:51:17.827Z</time>
      </trkpt>
      <trkpt lat="48.60835" lon="-3.00007">
        <ele>93.3</ele>
        <time>2023-01-31T15:51:18.133Z</time>
      </trkpt>
      <trkpt lat="48.60831" lon="-3">
        <ele>93.1</ele>
        <time>2023-01-31T15:51:18.528Z</time>
      </trkpt>
      <trkpt lat="48.60823" lon="-2.99995">
        <ele>93.4</ele>
        <time>2023-01-31T15:51:19.606Z</time>
      </trkpt>
      <trkpt lat="48.60815" lon="-2.99989">
        <ele>93.5</ele>
        <time>2023-01-31T15:51:20.446Z</time>
      </trkpt>
      <trkpt lat="48.60808" lon="-2.99984">
        <ele>93.4</ele>
        <time>2023-01-31T15:51:21.034Z</time>
      </trkpt>
      <trkpt lat="48.608" lon="-2.99983">
        <ele>93.4</ele>
        <time>2023-01-31T15:51:21.765Z</time>
      </trkpt>
      <trkpt lat="48.60791" lon="-2.99981">
        <ele>93.3</ele>
        <time>2023-01-31T15:51:22.422Z</time>
      </trkpt>
      <trkpt lat="48.60783" lon="-2.99982">
        <ele>93.4</ele>
        <time>2023-01-31T15:51:23.198Z</time>
      </trkpt>
      <trkpt lat="48.60779" lon="-2.99983">
        <ele>93.4</ele>
        <time>2023-01-31T15:51:23.585Z</time>
      </trkpt>
      <trkpt lat="48.60774" lon="-2.99984">
        <ele>93.3</ele>
        <time>2023-01-31T15:51:23.903Z</time>
      </trkpt>
      <trkpt lat="48.6077" lon="-2.99984">
        <ele>93.1</ele>
        <time>2023-01-31T15:51:24.172Z</time>
      </trkpt>
      <trkpt lat="48.60765" lon="-2.99985">
        <ele>93</ele>
        <time>2023-01-31T15:51:24.490Z</time>
      </trkpt>
      <trkpt lat="48.60762" lon="-2.99984">
        <ele>92.9</ele>
        <time>2023-01-31T15:51:24.688Z</time>
      </trkpt>
      <trkpt lat="48.60754" lon="-2.99979">
        <ele>92.4</ele>
        <time>2023-01-31T15:51:25.157Z</time>
      </trkpt>
      <trkpt lat="48.60752" lon="-2.99977">
        <ele>92.2</ele>
        <time>2023-01-31T15:51:25.280Z</time>
      </trkpt>
      <trkpt lat="48.60748" lon="-2.99967">
        <ele>92.3</ele>
        <time>2023-01-31T15:51:26.077Z</time>
      </trkpt>
      <trkpt lat="48.60743" lon="-2.99956">
        <ele>92.7</ele>
        <time>2023-01-31T15:51:27.284Z</time>
      </trkpt>
      <trkpt lat="48.6074" lon="-2.99949">
        <ele>92.9</ele>
        <time>2023-01-31T15:51:27.950Z</time>
      </trkpt>
      <trkpt lat="48.60738" lon="-2.99943">
        <ele>93</ele>
        <time>2023-01-31T15:51:28.482Z</time>
      </trkpt>
      <trkpt lat="48.60735" lon="-2.99936">
        <ele>92.8</ele>
        <time>2023-01-31T15:51:28.796Z</time>
      </trkpt>
      <trkpt lat="48.60733" lon="-2.9993">
        <ele>92.7</ele>
        <time>2023-01-31T15:51:29.162Z</time>
      </trkpt>
      <trkpt lat="48.6073" lon="-2.99923">
        <ele>92.4</ele>
        <time>2023-01-31T15:51:29.437Z</time>
      </trkpt>
      <trkpt lat="48.60727" lon="-2.99916">
        <ele>92.2</ele>
        <time>2023-01-31T15:51:29.752Z</time>
      </trkpt>
      <trkpt lat="48.60725" lon="-2.9991">
        <ele>91.9</ele>
        <time>2023-01-31T15:51:30.027Z</time>
      </trkpt>
      <trkpt lat="48.60722" lon="-2.99903">
        <ele>91.5</ele>
        <time>2023-01-31T15:51:30.288Z</time>
      </trkpt>
      <trkpt lat="48.60719" lon="-2.99895">
        <ele>91.3</ele>
        <time>2023-01-31T15:51:30.704Z</time>
      </trkpt>
      <trkpt lat="48.60716" lon="-2.99886">
        <ele>91.3</ele>
        <time>2023-01-31T15:51:31.248Z</time>
      </trkpt>
      <trkpt lat="48.60713" lon="-2.99877">
        <ele>91.5</ele>
        <time>2023-01-31T15:51:32.028Z</time>
      </trkpt>
      <trkpt lat="48.6071" lon="-2.99868">
        <ele>91.5</ele>
        <time>2023-01-31T15:51:32.597Z</time>
      </trkpt>
      <trkpt lat="48.60706" lon="-2.99857">
        <ele>91.2</ele>
        <time>2023-01-31T15:51:33.143Z</time>
      </trkpt>
      <trkpt lat="48.60702" lon="-2.99845">
        <ele>90.7</ele>
        <time>2023-01-31T15:51:33.607Z</time>
      </trkpt>
      <trkpt lat="48.60697" lon="-2.99836">
        <ele>90.2</ele>
        <time>2023-01-31T15:51:34.012Z</time>
      </trkpt>
      <trkpt lat="48.60692" lon="-2.99825">
        <ele>90.1</ele>
        <time>2023-01-31T15:51:34.691Z</time>
      </trkpt>
      <trkpt lat="48.60688" lon="-2.99816">
        <ele>90.1</ele>
        <time>2023-01-31T15:51:35.304Z</time>
      </trkpt>
      <trkpt lat="48.60684" lon="-2.99812">
        <ele>90.1</ele>
        <time>2023-01-31T15:51:35.730Z</time>
      </trkpt>
      <trkpt lat="48.6068" lon="-2.99807">
        <ele>90</ele>
        <time>2023-01-31T15:51:36.086Z</time>
      </trkpt>
      <trkpt lat="48.60674" lon="-2.998">
        <ele>89.9</ele>
        <time>2023-01-31T15:51:36.660Z</time>
      </trkpt>
      <trkpt lat="48.60668" lon="-2.99793">
        <ele>89.6</ele>
        <time>2023-01-31T15:51:37.125Z</time>
      </trkpt>
      <trkpt lat="48.60663" lon="-2.99788">
        <ele>89.5</ele>
        <time>2023-01-31T15:51:37.616Z</time>
      </trkpt>
      <trkpt lat="48.60657" lon="-2.99782">
        <ele>89.5</ele>
        <time>2023-01-31T15:51:38.179Z</time>
      </trkpt>
      <trkpt lat="48.60652" lon="-2.99778">
        <ele>89.5</ele>
        <time>2023-01-31T15:51:38.676Z</time>
      </trkpt>
      <trkpt lat="48.60647" lon="-2.99773">
        <ele>89.6</ele>
        <time>2023-01-31T15:51:39.267Z</time>
      </trkpt>
      <trkpt lat="48.60642" lon="-2.99768">
        <ele>89.6</ele>
        <time>2023-01-31T15:51:39.795Z</time>
      </trkpt>
      <trkpt lat="48.60637" lon="-2.99762">
        <ele>89.4</ele>
        <time>2023-01-31T15:51:40.196Z</time>
      </trkpt>
      <trkpt lat="48.60632" lon="-2.99756">
        <ele>89.2</ele>
        <time>2023-01-31T15:51:40.645Z</time>
      </trkpt>
      <trkpt lat="48.60626" lon="-2.9975">
        <ele>89</ele>
        <time>2023-01-31T15:51:41.094Z</time>
      </trkpt>
      <trkpt lat="48.60619" lon="-2.99743">
        <ele>88.9</ele>
        <time>2023-01-31T15:51:41.773Z</time>
      </trkpt>
      <trkpt lat="48.60611" lon="-2.99736">
        <ele>88.5</ele>
        <time>2023-01-31T15:51:42.291Z</time>
      </trkpt>
      <trkpt lat="48.60607" lon="-2.99732">
        <ele>88.4</ele>
        <time>2023-01-31T15:51:42.632Z</time>
      </trkpt>
      <trkpt lat="48.60603" lon="-2.99728">
        <ele>88.2</ele>
        <time>2023-01-31T15:51:42.922Z</time>
      </trkpt>
      <trkpt lat="48.60598" lon="-2.99722">
        <ele>88</ele>
        <time>2023-01-31T15:51:43.338Z</time>
      </trkpt>
      <trkpt lat="48.60598" lon="-2.99722">
        <ele>88</ele>
        <time>2023-01-31T15:51:43.338Z</time>
      </trkpt>
      <trkpt lat="48.60594" lon="-2.99718">
        <ele>88.1</ele>
        <time>2023-01-31T15:51:43.860Z</time>
      </trkpt>
      <trkpt lat="48.6059" lon="-2.99713">
        <ele>88.1</ele>
        <time>2023-01-31T15:51:44.286Z</time>
      </trkpt>
      <trkpt lat="48.60586" lon="-2.99709">
        <ele>88</ele>
        <time>2023-01-31T15:51:44.642Z</time>
      </trkpt>
      <trkpt lat="48.60582" lon="-2.99704">
        <ele>88</ele>
        <time>2023-01-31T15:51:45.068Z</time>
      </trkpt>
      <trkpt lat="48.60578" lon="-2.99699">
        <ele>88</ele>
        <time>2023-01-31T15:51:45.528Z</time>
      </trkpt>
      <trkpt lat="48.60574" lon="-2.99694">
        <ele>88</ele>
        <time>2023-01-31T15:51:45.988Z</time>
      </trkpt>
      <trkpt lat="48.60569" lon="-2.99689">
        <ele>87.9</ele>
        <time>2023-01-31T15:51:46.378Z</time>
      </trkpt>
      <trkpt lat="48.60565" lon="-2.99684">
        <ele>87.8</ele>
        <time>2023-01-31T15:51:46.767Z</time>
      </trkpt>
      <trkpt lat="48.6056" lon="-2.99681">
        <ele>87.6</ele>
        <time>2023-01-31T15:51:47.103Z</time>
      </trkpt>
      <trkpt lat="48.60553" lon="-2.99676">
        <ele>87.2</ele>
        <time>2023-01-31T15:51:47.540Z</time>
      </trkpt>
      <trkpt lat="48.60546" lon="-2.99671">
        <ele>86.8</ele>
        <time>2023-01-31T15:51:47.977Z</time>
      </trkpt>
      <trkpt lat="48.60541" lon="-2.99669">
        <ele>86.6</ele>
        <time>2023-01-31T15:51:48.296Z</time>
      </trkpt>
      <trkpt lat="48.60536" lon="-2.99668">
        <ele>86.3</ele>
        <time>2023-01-31T15:51:48.607Z</time>
      </trkpt>
      <trkpt lat="48.6053" lon="-2.99666">
        <ele>86.1</ele>
        <time>2023-01-31T15:51:48.960Z</time>
      </trkpt>
      <trkpt lat="48.60523" lon="-2.99665">
        <ele>85.8</ele>
        <time>2023-01-31T15:51:49.382Z</time>
      </trkpt>
      <trkpt lat="48.60518" lon="-2.99666">
        <ele>85.6</ele>
        <time>2023-01-31T15:51:49.728Z</time>
      </trkpt>
      <trkpt lat="48.60512" lon="-2.99666">
        <ele>85.4</ele>
        <time>2023-01-31T15:51:50.074Z</time>
      </trkpt>
      <trkpt lat="48.60505" lon="-2.99671">
        <ele>85.3</ele>
        <time>2023-01-31T15:51:50.662Z</time>
      </trkpt>
      <trkpt lat="48.605" lon="-2.99676">
        <ele>85.3</ele>
        <time>2023-01-31T15:51:51.211Z</time>
      </trkpt>
      <trkpt lat="48.60494" lon="-2.99681">
        <ele>85.5</ele>
        <time>2023-01-31T15:51:51.971Z</time>
      </trkpt>
      <trkpt lat="48.6049" lon="-2.99687">
        <ele>85.7</ele>
        <time>2023-01-31T15:51:52.685Z</time>
      </trkpt>
      <trkpt lat="48.60485" lon="-2.99692">
        <ele>85.9</ele>
        <time>2023-01-31T15:51:53.399Z</time>
      </trkpt>
      <trkpt lat="48.60481" lon="-2.99698">
        <ele>86</ele>
        <time>2023-01-31T15:51:53.987Z</time>
      </trkpt>
      <trkpt lat="48.60476" lon="-2.99703">
        <ele>86</ele>
        <time>2023-01-31T15:51:54.481Z</time>
      </trkpt>
      <trkpt lat="48.60473" lon="-2.99709">
        <ele>86</ele>
        <time>2023-01-31T15:51:54.906Z</time>
      </trkpt>
      <trkpt lat="48.60471" lon="-2.99716">
        <ele>86.1</ele>
        <time>2023-01-31T15:51:55.427Z</time>
      </trkpt>
      <trkpt lat="48.60468" lon="-2.99722">
        <ele>86.2</ele>
        <time>2023-01-31T15:51:55.948Z</time>
      </trkpt>
      <trkpt lat="48.60465" lon="-2.9973">
        <ele>86.3</ele>
        <time>2023-01-31T15:51:56.559Z</time>
      </trkpt>
      <trkpt lat="48.60462" lon="-2.99738">
        <ele>86.4</ele>
        <time>2023-01-31T15:51:57.171Z</time>
      </trkpt>
      <trkpt lat="48.60458" lon="-2.99745">
        <ele>86.5</ele>
        <time>2023-01-31T15:51:57.783Z</time>
      </trkpt>
      <trkpt lat="48.60455" lon="-2.99753">
        <ele>86.6</ele>
        <time>2023-01-31T15:51:58.394Z</time>
      </trkpt>
      <trkpt lat="48.60451" lon="-2.99764">
        <ele>86.5</ele>
        <time>2023-01-31T15:51:59.005Z</time>
      </trkpt>
      <trkpt lat="48.60447" lon="-2.99774">
        <ele>86.2</ele>
        <time>2023-01-31T15:51:59.505Z</time>
      </trkpt>
      <trkpt lat="48.60441" lon="-2.9978">
        <ele>86.1</ele>
        <time>2023-01-31T15:52:00.082Z</time>
      </trkpt>
      <trkpt lat="48.60434" lon="-2.99786">
        <ele>86.3</ele>
        <time>2023-01-31T15:52:00.936Z</time>
      </trkpt>
      <trkpt lat="48.6043" lon="-2.99791">
        <ele>86.3</ele>
        <time>2023-01-31T15:52:01.361Z</time>
      </trkpt>
      <trkpt lat="48.60426" lon="-2.99795">
        <ele>86.3</ele>
        <time>2023-01-31T15:52:01.787Z</time>
      </trkpt>
      <trkpt lat="48.60424" lon="-2.99796">
        <ele>86.3</ele>
        <time>2023-01-31T15:52:01.967Z</time>
      </trkpt>
      <trkpt lat="48.60419" lon="-2.99797">
        <ele>86.3</ele>
        <time>2023-01-31T15:52:02.441Z</time>
      </trkpt>
      <trkpt lat="48.60413" lon="-2.99798">
        <ele>86.3</ele>
        <time>2023-01-31T15:52:02.914Z</time>
      </trkpt>
      <trkpt lat="48.60408" lon="-2.99799">
        <ele>86.2</ele>
        <time>2023-01-31T15:52:03.316Z</time>
      </trkpt>
      <trkpt lat="48.60402" lon="-2.998">
        <ele>86.2</ele>
        <time>2023-01-31T15:52:03.790Z</time>
      </trkpt>
      <trkpt lat="48.60394" lon="-2.99802">
        <ele>86.1</ele>
        <time>2023-01-31T15:52:04.405Z</time>
      </trkpt>
      <trkpt lat="48.60386" lon="-2.99803">
        <ele>86.2</ele>
        <time>2023-01-31T15:52:05.183Z</time>
      </trkpt>
      <trkpt lat="48.60383" lon="-2.99816">
        <ele>86.5</ele>
        <time>2023-01-31T15:52:06.262Z</time>
      </trkpt>
      <trkpt lat="48.6038" lon="-2.99828">
        <ele>86.9</ele>
        <time>2023-01-31T15:52:07.500Z</time>
      </trkpt>
      <trkpt lat="48.60379" lon="-2.99837">
        <ele>87.1</ele>
        <time>2023-01-31T15:52:08.252Z</time>
      </trkpt>
      <trkpt lat="48.60377" lon="-2.99847">
        <ele>87.2</ele>
        <time>2023-01-31T15:52:08.882Z</time>
      </trkpt>
      <trkpt lat="48.60376" lon="-2.99856">
        <ele>87.4</ele>
        <time>2023-01-31T15:52:09.634Z</time>
      </trkpt>
      <trkpt lat="48.60374" lon="-2.99865">
        <ele>87.6</ele>
        <time>2023-01-31T15:52:10.386Z</time>
      </trkpt>
      <trkpt lat="48.60373" lon="-2.99873">
        <ele>87.7</ele>
        <time>2023-01-31T15:52:10.914Z</time>
      </trkpt>
      <trkpt lat="48.60372" lon="-2.9988">
        <ele>87.9</ele>
        <time>2023-01-31T15:52:11.576Z</time>
      </trkpt>
      <trkpt lat="48.60367" lon="-2.9989">
        <ele>88</ele>
        <time>2023-01-31T15:52:12.374Z</time>
      </trkpt>
      <trkpt lat="48.60362" lon="-2.999">
        <ele>88</ele>
        <time>2023-01-31T15:52:13.082Z</time>
      </trkpt>
      <trkpt lat="48.60358" lon="-2.99909">
        <ele>88.1</ele>
        <time>2023-01-31T15:52:13.798Z</time>
      </trkpt>
      <trkpt lat="48.60354" lon="-2.99918">
        <ele>88.3</ele>
        <time>2023-01-31T15:52:14.628Z</time>
      </trkpt>
      <trkpt lat="48.60349" lon="-2.99927">
        <ele>88.6</ele>
        <time>2023-01-31T15:52:15.602Z</time>
      </trkpt>
      <trkpt lat="48.60345" lon="-2.99936">
        <ele>88.9</ele>
        <time>2023-01-31T15:52:16.577Z</time>
      </trkpt>
      <trkpt lat="48.60344" lon="-2.99941">
        <ele>89</ele>
        <time>2023-01-31T15:52:16.976Z</time>
      </trkpt>
      <trkpt lat="48.60342" lon="-2.99951">
        <ele>89.2</ele>
        <time>2023-01-31T15:52:17.757Z</time>
      </trkpt>
      <trkpt lat="48.60341" lon="-2.99961">
        <ele>89.6</ele>
        <time>2023-01-31T15:52:18.889Z</time>
      </trkpt>
      <trkpt lat="48.60339" lon="-2.9997">
        <ele>89.9</ele>
        <time>2023-01-31T15:52:19.823Z</time>
      </trkpt>
      <trkpt lat="48.60337" lon="-2.9998">
        <ele>90.2</ele>
        <time>2023-01-31T15:52:20.757Z</time>
      </trkpt>
      <trkpt lat="48.60338" lon="-2.99991">
        <ele>90.6</ele>
        <time>2023-01-31T15:52:21.917Z</time>
      </trkpt>
      <trkpt lat="48.6034" lon="-3.00002">
        <ele>90.8</ele>
        <time>2023-01-31T15:52:22.753Z</time>
      </trkpt>
      <trkpt lat="48.60341" lon="-3.00013">
        <ele>90.9</ele>
        <time>2023-01-31T15:52:23.474Z</time>
      </trkpt>
      <trkpt lat="48.60342" lon="-3.00024">
        <ele>91</ele>
        <time>2023-01-31T15:52:24.195Z</time>
      </trkpt>
      <trkpt lat="48.60343" lon="-3.00031">
        <ele>91.1</ele>
        <time>2023-01-31T15:52:24.707Z</time>
      </trkpt>
      <trkpt lat="48.60344" lon="-3.00039">
        <ele>91.2</ele>
        <time>2023-01-31T15:52:25.218Z</time>
      </trkpt>
      <trkpt lat="48.60344" lon="-3.00046">
        <ele>91.4</ele>
        <time>2023-01-31T15:52:25.866Z</time>
      </trkpt>
      <trkpt lat="48.60345" lon="-3.00053">
        <ele>91.5</ele>
        <time>2023-01-31T15:52:26.377Z</time>
      </trkpt>
      <trkpt lat="48.60345" lon="-3.00062">
        <ele>91.7</ele>
        <time>2023-01-31T15:52:27.116Z</time>
      </trkpt>
      <trkpt lat="48.60346" lon="-3.00072">
        <ele>91.8</ele>
        <time>2023-01-31T15:52:27.732Z</time>
      </trkpt>
      <trkpt lat="48.60346" lon="-3.00081">
        <ele>92</ele>
        <time>2023-01-31T15:52:28.470Z</time>
      </trkpt>
      <trkpt lat="48.60346" lon="-3.0009">
        <ele>92.2</ele>
        <time>2023-01-31T15:52:29.209Z</time>
      </trkpt>
      <trkpt lat="48.60347" lon="-3.00102">
        <ele>92.7</ele>
        <time>2023-01-31T15:52:30.603Z</time>
      </trkpt>
      <trkpt lat="48.60347" lon="-3.00113">
        <ele>93</ele>
        <time>2023-01-31T15:52:31.598Z</time>
      </trkpt>
      <trkpt lat="48.60348" lon="-3.00125">
        <ele>93.2</ele>
        <time>2023-01-31T15:52:32.452Z</time>
      </trkpt>
      <trkpt lat="48.60348" lon="-3.00136">
        <ele>93.4</ele>
        <time>2023-01-31T15:52:33.306Z</time>
      </trkpt>
      <trkpt lat="48.60348" lon="-3.00144">
        <ele>93.6</ele>
        <time>2023-01-31T15:52:33.984Z</time>
      </trkpt>
      <trkpt lat="48.60348" lon="-3.00152">
        <ele>93.7</ele>
        <time>2023-01-31T15:52:34.532Z</time>
      </trkpt>
      <trkpt lat="48.60348" lon="-3.00165">
        <ele>94</ele>
        <time>2023-01-31T15:52:35.609Z</time>
      </trkpt>
      <trkpt lat="48.60347" lon="-3.00179">
        <ele>94.2</ele>
        <time>2023-01-31T15:52:36.556Z</time>
      </trkpt>
      <trkpt lat="48.60347" lon="-3.00192">
        <ele>94.5</ele>
        <time>2023-01-31T15:52:37.633Z</time>
      </trkpt>
      <trkpt lat="48.60346" lon="-3.00205">
        <ele>94.3</ele>
        <time>2023-01-31T15:52:38.247Z</time>
      </trkpt>
      <trkpt lat="48.60346" lon="-3.00214">
        <ele>94.2</ele>
        <time>2023-01-31T15:52:38.699Z</time>
      </trkpt>
      <trkpt lat="48.60345" lon="-3.00224">
        <ele>94</ele>
        <time>2023-01-31T15:52:39.096Z</time>
      </trkpt>
      <trkpt lat="48.60345" lon="-3.00233">
        <ele>94.2</ele>
        <time>2023-01-31T15:52:39.836Z</time>
      </trkpt>
      <trkpt lat="48.60344" lon="-3.00242">
        <ele>94.3</ele>
        <time>2023-01-31T15:52:40.453Z</time>
      </trkpt>
      <trkpt lat="48.60344" lon="-3.00253">
        <ele>94.5</ele>
        <time>2023-01-31T15:52:41.281Z</time>
      </trkpt>
      <trkpt lat="48.60343" lon="-3.00264">
        <ele>94.9</ele>
        <time>2023-01-31T15:52:42.438Z</time>
      </trkpt>
      <trkpt lat="48.60343" lon="-3.00275">
        <ele>95.2</ele>
        <time>2023-01-31T15:52:43.411Z</time>
      </trkpt>
      <trkpt lat="48.60342" lon="-3.00286">
        <ele>95.5</ele>
        <time>2023-01-31T15:52:44.384Z</time>
      </trkpt>
      <trkpt lat="48.60341" lon="-3.00289">
        <ele>95.6</ele>
        <time>2023-01-31T15:52:44.695Z</time>
      </trkpt>
      <trkpt lat="48.60338" lon="-3.00299">
        <ele>95.8</ele>
        <time>2023-01-31T15:52:45.513Z</time>
      </trkpt>
      <trkpt lat="48.60336" lon="-3.00309">
        <ele>96</ele>
        <time>2023-01-31T15:52:46.331Z</time>
      </trkpt>
      <trkpt lat="48.60333" lon="-3.00319">
        <ele>96</ele>
        <time>2023-01-31T15:52:46.943Z</time>
      </trkpt>
      <trkpt lat="48.6033" lon="-3.00329">
        <ele>96</ele>
        <time>2023-01-31T15:52:47.555Z</time>
      </trkpt>
      <trkpt lat="48.60327" lon="-3.0034">
        <ele>96</ele>
        <time>2023-01-31T15:52:48.206Z</time>
      </trkpt>
      <trkpt lat="48.60325" lon="-3.00351">
        <ele>96</ele>
        <time>2023-01-31T15:52:48.857Z</time>
      </trkpt>
      <trkpt lat="48.60322" lon="-3.00361">
        <ele>96</ele>
        <time>2023-01-31T15:52:49.508Z</time>
      </trkpt>
      <trkpt lat="48.60319" lon="-3.00372">
        <ele>96</ele>
        <time>2023-01-31T15:52:50.159Z</time>
      </trkpt>
      <trkpt lat="48.60317" lon="-3.00379">
        <ele>96</ele>
        <time>2023-01-31T15:52:50.577Z</time>
      </trkpt>
      <trkpt lat="48.60315" lon="-3.00386">
        <ele>96</ele>
        <time>2023-01-31T15:52:50.995Z</time>
      </trkpt>
      <trkpt lat="48.60313" lon="-3.00392">
        <ele>96</ele>
        <time>2023-01-31T15:52:51.413Z</time>
      </trkpt>
      <trkpt lat="48.60311" lon="-3.00399">
        <ele>96</ele>
        <time>2023-01-31T15:52:51.831Z</time>
      </trkpt>
      <trkpt lat="48.6031" lon="-3.0041">
        <ele>96</ele>
        <time>2023-01-31T15:52:52.441Z</time>
      </trkpt>
      <trkpt lat="48.6031" lon="-3.00421">
        <ele>96.1</ele>
        <time>2023-01-31T15:52:53.143Z</time>
      </trkpt>
      <trkpt lat="48.60309" lon="-3.00431">
        <ele>96.5</ele>
        <time>2023-01-31T15:52:54.294Z</time>
      </trkpt>
      <trkpt lat="48.60308" lon="-3.00442">
        <ele>96.9</ele>
        <time>2023-01-31T15:52:55.444Z</time>
      </trkpt>
      <trkpt lat="48.60307" lon="-3.00454">
        <ele>97</ele>
        <time>2023-01-31T15:52:56.217Z</time>
      </trkpt>
      <trkpt lat="48.60306" lon="-3.00466">
        <ele>97</ele>
        <time>2023-01-31T15:52:56.901Z</time>
      </trkpt>
      <trkpt lat="48.60305" lon="-3.00473">
        <ele>97</ele>
        <time>2023-01-31T15:52:57.305Z</time>
      </trkpt>
      <trkpt lat="48.60305" lon="-3.0048">
        <ele>97</ele>
        <time>2023-01-31T15:52:57.715Z</time>
      </trkpt>
      <trkpt lat="48.60305" lon="-3.00488">
        <ele>97</ele>
        <time>2023-01-31T15:52:58.124Z</time>
      </trkpt>
      <trkpt lat="48.60305" lon="-3.00495">
        <ele>97</ele>
        <time>2023-01-31T15:52:58.534Z</time>
      </trkpt>
      <trkpt lat="48.60305" lon="-3.00502">
        <ele>97.1</ele>
        <time>2023-01-31T15:52:59.040Z</time>
      </trkpt>
      <trkpt lat="48.60305" lon="-3.00509">
        <ele>97.3</ele>
        <time>2023-01-31T15:52:59.685Z</time>
      </trkpt>
      <trkpt lat="48.60305" lon="-3.00517">
        <ele>97.6</ele>
        <time>2023-01-31T15:53:00.527Z</time>
      </trkpt>
      <trkpt lat="48.60305" lon="-3.00524">
        <ele>97.9</ele>
        <time>2023-01-31T15:53:01.369Z</time>
      </trkpt>
      <trkpt lat="48.60305" lon="-3.00531">
        <ele>98</ele>
        <time>2023-01-31T15:53:01.875Z</time>
      </trkpt>
      <trkpt lat="48.60305" lon="-3.00539">
        <ele>98</ele>
        <time>2023-01-31T15:53:02.341Z</time>
      </trkpt>
      <trkpt lat="48.60305" lon="-3.00548">
        <ele>98</ele>
        <time>2023-01-31T15:53:02.807Z</time>
      </trkpt>
      <trkpt lat="48.60305" lon="-3.00556">
        <ele>98</ele>
        <time>2023-01-31T15:53:03.273Z</time>
      </trkpt>
      <trkpt lat="48.60305" lon="-3.00564">
        <ele>98</ele>
        <time>2023-01-31T15:53:03.739Z</time>
      </trkpt>
      <trkpt lat="48.60305" lon="-3.00575">
        <ele>98</ele>
        <time>2023-01-31T15:53:04.347Z</time>
      </trkpt>
      <trkpt lat="48.60305" lon="-3.00586">
        <ele>98</ele>
        <time>2023-01-31T15:53:04.954Z</time>
      </trkpt>
      <trkpt lat="48.60305" lon="-3.00596">
        <ele>98</ele>
        <time>2023-01-31T15:53:05.562Z</time>
      </trkpt>
      <trkpt lat="48.60305" lon="-3.00607">
        <ele>98</ele>
        <time>2023-01-31T15:53:06.169Z</time>
      </trkpt>
      <trkpt lat="48.60304" lon="-3.00618">
        <ele>98</ele>
        <time>2023-01-31T15:53:06.776Z</time>
      </trkpt>
      <trkpt lat="48.60304" lon="-3.00629">
        <ele>98</ele>
        <time>2023-01-31T15:53:07.384Z</time>
      </trkpt>
      <trkpt lat="48.60304" lon="-3.00639">
        <ele>98.1</ele>
        <time>2023-01-31T15:53:08.082Z</time>
      </trkpt>
      <trkpt lat="48.60304" lon="-3.0065">
        <ele>98.4</ele>
        <time>2023-01-31T15:53:09.043Z</time>
      </trkpt>
      <trkpt lat="48.60304" lon="-3.00661">
        <ele>98.8</ele>
        <time>2023-01-31T15:53:10.199Z</time>
      </trkpt>
      <trkpt lat="48.60304" lon="-3.00672">
        <ele>99</ele>
        <time>2023-01-31T15:53:11.026Z</time>
      </trkpt>
      <trkpt lat="48.60304" lon="-3.00683">
        <ele>99</ele>
        <time>2023-01-31T15:53:11.648Z</time>
      </trkpt>
      <trkpt lat="48.60304" lon="-3.00694">
        <ele>99</ele>
        <time>2023-01-31T15:53:12.269Z</time>
      </trkpt>
      <trkpt lat="48.60304" lon="-3.00701">
        <ele>99</ele>
        <time>2023-01-31T15:53:12.679Z</time>
      </trkpt>
      <trkpt lat="48.60304" lon="-3.00709">
        <ele>99</ele>
        <time>2023-01-31T15:53:13.089Z</time>
      </trkpt>
      <trkpt lat="48.60303" lon="-3.00716">
        <ele>99</ele>
        <time>2023-01-31T15:53:13.500Z</time>
      </trkpt>
      <trkpt lat="48.60303" lon="-3.00723">
        <ele>99</ele>
        <time>2023-01-31T15:53:13.910Z</time>
      </trkpt>
      <trkpt lat="48.60303" lon="-3.00735">
        <ele>98.6</ele>
        <time>2023-01-31T15:53:14.361Z</time>
      </trkpt>
      <trkpt lat="48.60304" lon="-3.00744">
        <ele>98.3</ele>
        <time>2023-01-31T15:53:14.706Z</time>
      </trkpt>
      <trkpt lat="48.60305" lon="-3.00753">
        <ele>98</ele>
        <time>2023-01-31T15:53:15.062Z</time>
      </trkpt>
      <trkpt lat="48.60307" lon="-3.00762">
        <ele>98</ele>
        <time>2023-01-31T15:53:15.591Z</time>
      </trkpt>
      <trkpt lat="48.60308" lon="-3.00771">
        <ele>98</ele>
        <time>2023-01-31T15:53:16.120Z</time>
      </trkpt>
      <trkpt lat="48.6031" lon="-3.00781">
        <ele>98.1</ele>
        <time>2023-01-31T15:53:16.742Z</time>
      </trkpt>
      <trkpt lat="48.60311" lon="-3.0079">
        <ele>98.3</ele>
        <time>2023-01-31T15:53:17.485Z</time>
      </trkpt>
      <trkpt lat="48.60312" lon="-3.00799">
        <ele>98.6</ele>
        <time>2023-01-31T15:53:18.390Z</time>
      </trkpt>
      <trkpt lat="48.60314" lon="-3.00808">
        <ele>98.7</ele>
        <time>2023-01-31T15:53:19.011Z</time>
      </trkpt>
      <trkpt lat="48.60315" lon="-3.00817">
        <ele>98.8</ele>
        <time>2023-01-31T15:53:19.633Z</time>
      </trkpt>
      <trkpt lat="48.60316" lon="-3.00824">
        <ele>98.9</ele>
        <time>2023-01-31T15:53:20.148Z</time>
      </trkpt>
      <trkpt lat="48.60317" lon="-3.00832">
        <ele>99</ele>
        <time>2023-01-31T15:53:20.663Z</time>
      </trkpt>
      <trkpt lat="48.60318" lon="-3.00839">
        <ele>99</ele>
        <time>2023-01-31T15:53:21.081Z</time>
      </trkpt>
      <trkpt lat="48.60319" lon="-3.00846">
        <ele>99</ele>
        <time>2023-01-31T15:53:21.499Z</time>
      </trkpt>
      <trkpt lat="48.60321" lon="-3.00856">
        <ele>99</ele>
        <time>2023-01-31T15:53:22.093Z</time>
      </trkpt>
      <trkpt lat="48.60323" lon="-3.00866">
        <ele>99</ele>
        <time>2023-01-31T15:53:22.687Z</time>
      </trkpt>
      <trkpt lat="48.60325" lon="-3.00876">
        <ele>99</ele>
        <time>2023-01-31T15:53:23.281Z</time>
      </trkpt>
      <trkpt lat="48.60327" lon="-3.00887">
        <ele>99</ele>
        <time>2023-01-31T15:53:23.875Z</time>
      </trkpt>
      <trkpt lat="48.60328" lon="-3.00897">
        <ele>99.2</ele>
        <time>2023-01-31T15:53:24.677Z</time>
      </trkpt>
      <trkpt lat="48.6033" lon="-3.00907">
        <ele>99.6</ele>
        <time>2023-01-31T15:53:25.819Z</time>
      </trkpt>
      <trkpt lat="48.60332" lon="-3.00917">
        <ele>99.9</ele>
        <time>2023-01-31T15:53:26.770Z</time>
      </trkpt>
      <trkpt lat="48.60334" lon="-3.00927">
        <ele>99.6</ele>
        <time>2023-01-31T15:53:27.186Z</time>
      </trkpt>
      <trkpt lat="48.60336" lon="-3.00936">
        <ele>99.4</ele>
        <time>2023-01-31T15:53:27.582Z</time>
      </trkpt>
      <trkpt lat="48.60338" lon="-3.00945">
        <ele>99.2</ele>
        <time>2023-01-31T15:53:27.977Z</time>
      </trkpt>
      <trkpt lat="48.6034" lon="-3.00953">
        <ele>99.2</ele>
        <time>2023-01-31T15:53:28.500Z</time>
      </trkpt>
      <trkpt lat="48.60342" lon="-3.00962">
        <ele>99.3</ele>
        <time>2023-01-31T15:53:29.116Z</time>
      </trkpt>
      <trkpt lat="48.60344" lon="-3.00974">
        <ele>99.4</ele>
        <time>2023-01-31T15:53:29.878Z</time>
      </trkpt>
      <trkpt lat="48.60346" lon="-3.00985">
        <ele>99.5</ele>
        <time>2023-01-31T15:53:30.640Z</time>
      </trkpt>
      <trkpt lat="48.60348" lon="-3.00997">
        <ele>99.5</ele>
        <time>2023-01-31T15:53:31.312Z</time>
      </trkpt>
      <trkpt lat="48.6035" lon="-3.01008">
        <ele>99.4</ele>
        <time>2023-01-31T15:53:31.910Z</time>
      </trkpt>
      <trkpt lat="48.6035" lon="-3.01016">
        <ele>99.3</ele>
        <time>2023-01-31T15:53:32.264Z</time>
      </trkpt>
      <trkpt lat="48.6035" lon="-3.01023">
        <ele>99.1</ele>
        <time>2023-01-31T15:53:32.567Z</time>
      </trkpt>
      <trkpt lat="48.6035" lon="-3.01031">
        <ele>99</ele>
        <time>2023-01-31T15:53:32.921Z</time>
      </trkpt>
      <trkpt lat="48.6035" lon="-3.01038">
        <ele>99</ele>
        <time>2023-01-31T15:53:33.345Z</time>
      </trkpt>
      <trkpt lat="48.60349" lon="-3.0105">
        <ele>99</ele>
        <time>2023-01-31T15:53:34.028Z</time>
      </trkpt>
      <trkpt lat="48.60348" lon="-3.01059">
        <ele>98.9</ele>
        <time>2023-01-31T15:53:34.472Z</time>
      </trkpt>
      <trkpt lat="48.60347" lon="-3.01068">
        <ele>98.8</ele>
        <time>2023-01-31T15:53:34.916Z</time>
      </trkpt>
      <trkpt lat="48.60343" lon="-3.0108">
        <ele>98.4</ele>
        <time>2023-01-31T15:53:35.418Z</time>
      </trkpt>
      <trkpt lat="48.60339" lon="-3.01091">
        <ele>98.4</ele>
        <time>2023-01-31T15:53:36.152Z</time>
      </trkpt>
      <trkpt lat="48.60337" lon="-3.01099">
        <ele>98.6</ele>
        <time>2023-01-31T15:53:36.856Z</time>
      </trkpt>
      <trkpt lat="48.60334" lon="-3.01112">
        <ele>99</ele>
        <time>2023-01-31T15:53:38.105Z</time>
      </trkpt>
      <trkpt lat="48.6033" lon="-3.01124">
        <ele>99</ele>
        <time>2023-01-31T15:53:38.872Z</time>
      </trkpt>
      <trkpt lat="48.60328" lon="-3.01134">
        <ele>99</ele>
        <time>2023-01-31T15:53:39.435Z</time>
      </trkpt>
      <trkpt lat="48.60326" lon="-3.01143">
        <ele>99</ele>
        <time>2023-01-31T15:53:39.999Z</time>
      </trkpt>
      <trkpt lat="48.60325" lon="-3.01149">
        <ele>99</ele>
        <time>2023-01-31T15:53:40.348Z</time>
      </trkpt>
      <trkpt lat="48.60324" lon="-3.01157">
        <ele>99</ele>
        <time>2023-01-31T15:53:40.794Z</time>
      </trkpt>
      <trkpt lat="48.60323" lon="-3.01165">
        <ele>99</ele>
        <time>2023-01-31T15:53:41.240Z</time>
      </trkpt>
      <trkpt lat="48.60322" lon="-3.01172">
        <ele>98.8</ele>
        <time>2023-01-31T15:53:41.564Z</time>
      </trkpt>
      <trkpt lat="48.60321" lon="-3.0118">
        <ele>98.5</ele>
        <time>2023-01-31T15:53:41.847Z</time>
      </trkpt>
      <trkpt lat="48.6032" lon="-3.01187">
        <ele>98.3</ele>
        <time>2023-01-31T15:53:42.132Z</time>
      </trkpt>
      <trkpt lat="48.60319" lon="-3.01194">
        <ele>98</ele>
        <time>2023-01-31T15:53:42.380Z</time>
      </trkpt>
      <trkpt lat="48.60319" lon="-3.012">
        <ele>98.1</ele>
        <time>2023-01-31T15:53:42.820Z</time>
      </trkpt>
      <trkpt lat="48.60319" lon="-3.01214">
        <ele>98.4</ele>
        <time>2023-01-31T15:53:43.908Z</time>
      </trkpt>
      <trkpt lat="48.60319" lon="-3.01227">
        <ele>98.5</ele>
        <time>2023-01-31T15:53:44.760Z</time>
      </trkpt>
      <trkpt lat="48.60319" lon="-3.01241">
        <ele>98.5</ele>
        <time>2023-01-31T15:53:45.523Z</time>
      </trkpt>
      <trkpt lat="48.60319" lon="-3.01254">
        <ele>98.5</ele>
        <time>2023-01-31T15:53:46.285Z</time>
      </trkpt>
      <trkpt lat="48.60319" lon="-3.01261">
        <ele>98.5</ele>
        <time>2023-01-31T15:53:46.695Z</time>
      </trkpt>
      <trkpt lat="48.60319" lon="-3.01269">
        <ele>98.5</ele>
        <time>2023-01-31T15:53:47.105Z</time>
      </trkpt>
      <trkpt lat="48.60319" lon="-3.01276">
        <ele>98.5</ele>
        <time>2023-01-31T15:53:47.514Z</time>
      </trkpt>
      <trkpt lat="48.60319" lon="-3.01283">
        <ele>98.4</ele>
        <time>2023-01-31T15:53:47.854Z</time>
      </trkpt>
      <trkpt lat="48.60319" lon="-3.01297">
        <ele>98.2</ele>
        <time>2023-01-31T15:53:48.480Z</time>
      </trkpt>
      <trkpt lat="48.60319" lon="-3.0131">
        <ele>98</ele>
        <time>2023-01-31T15:53:49.106Z</time>
      </trkpt>
      <trkpt lat="48.60319" lon="-3.01319">
        <ele>98</ele>
        <time>2023-01-31T15:53:49.586Z</time>
      </trkpt>
      <trkpt lat="48.60319" lon="-3.01327">
        <ele>98</ele>
        <time>2023-01-31T15:53:50.066Z</time>
      </trkpt>
      <trkpt lat="48.60319" lon="-3.01336">
        <ele>98</ele>
        <time>2023-01-31T15:53:50.546Z</time>
      </trkpt>
      <trkpt lat="48.60319" lon="-3.01344">
        <ele>98</ele>
        <time>2023-01-31T15:53:51.027Z</time>
      </trkpt>
      <trkpt lat="48.60319" lon="-3.01352">
        <ele>98</ele>
        <time>2023-01-31T15:53:51.464Z</time>
      </trkpt>
      <trkpt lat="48.60319" lon="-3.0136">
        <ele>98</ele>
        <time>2023-01-31T15:53:51.902Z</time>
      </trkpt>
      <trkpt lat="48.60319" lon="-3.01367">
        <ele>98</ele>
        <time>2023-01-31T15:53:52.340Z</time>
      </trkpt>
      <trkpt lat="48.60319" lon="-3.01375">
        <ele>98</ele>
        <time>2023-01-31T15:53:52.778Z</time>
      </trkpt>
      <trkpt lat="48.60319" lon="-3.01384">
        <ele>98</ele>
        <time>2023-01-31T15:53:53.258Z</time>
      </trkpt>
      <trkpt lat="48.60319" lon="-3.01392">
        <ele>98</ele>
        <time>2023-01-31T15:53:53.738Z</time>
      </trkpt>
      <trkpt lat="48.6032" lon="-3.01397">
        <ele>98</ele>
        <time>2023-01-31T15:53:54.033Z</time>
      </trkpt>
      <trkpt lat="48.60322" lon="-3.01404">
        <ele>98</ele>
        <time>2023-01-31T15:53:54.486Z</time>
      </trkpt>
      <trkpt lat="48.60325" lon="-3.01412">
        <ele>98</ele>
        <time>2023-01-31T15:53:54.938Z</time>
      </trkpt>
      <trkpt lat="48.60327" lon="-3.01419">
        <ele>98</ele>
        <time>2023-01-31T15:53:55.391Z</time>
      </trkpt>
      <trkpt lat="48.60329" lon="-3.01426">
        <ele>98</ele>
        <time>2023-01-31T15:53:55.843Z</time>
      </trkpt>
      <trkpt lat="48.60332" lon="-3.01436">
        <ele>98</ele>
        <time>2023-01-31T15:53:56.438Z</time>
      </trkpt>
      <trkpt lat="48.60335" lon="-3.01445">
        <ele>98</ele>
        <time>2023-01-31T15:53:57.032Z</time>
      </trkpt>
      <trkpt lat="48.60338" lon="-3.01455">
        <ele>97.9</ele>
        <time>2023-01-31T15:53:57.554Z</time>
      </trkpt>
      <trkpt lat="48.60341" lon="-3.01464">
        <ele>97.8</ele>
        <time>2023-01-31T15:53:58.077Z</time>
      </trkpt>
      <trkpt lat="48.60345" lon="-3.0147">
        <ele>97.6</ele>
        <time>2023-01-31T15:53:58.386Z</time>
      </trkpt>
      <trkpt lat="48.60348" lon="-3.01475">
        <ele>97.5</ele>
        <time>2023-01-31T15:53:58.748Z</time>
      </trkpt>
      <trkpt lat="48.60353" lon="-3.01485">
        <ele>97.3</ele>
        <time>2023-01-31T15:53:59.320Z</time>
      </trkpt>
      <trkpt lat="48.60357" lon="-3.01494">
        <ele>97.1</ele>
        <time>2023-01-31T15:53:59.801Z</time>
      </trkpt>
      <trkpt lat="48.60362" lon="-3.01504">
        <ele>97</ele>
        <time>2023-01-31T15:54:00.436Z</time>
      </trkpt>
      <trkpt lat="48.60364" lon="-3.01507">
        <ele>97</ele>
        <time>2023-01-31T15:54:00.676Z</time>
      </trkpt>
      <trkpt lat="48.6037" lon="-3.01511">
        <ele>97</ele>
        <time>2023-01-31T15:54:01.236Z</time>
      </trkpt>
      <trkpt lat="48.60373" lon="-3.01513">
        <ele>97</ele>
        <time>2023-01-31T15:54:01.517Z</time>
      </trkpt>
      <trkpt lat="48.6038" lon="-3.01519">
        <ele>97</ele>
        <time>2023-01-31T15:54:02.167Z</time>
      </trkpt>
      <trkpt lat="48.60386" lon="-3.01525">
        <ele>97</ele>
        <time>2023-01-31T15:54:02.818Z</time>
      </trkpt>
    </trkseg>
  </trk>
</gpx>